Return to Metar
METAR CYNL 110300Z AUTO ///// 9SM BKN007 BKN009 M14/M16 A3005 RMK AO1 PRESRR SLP235
SPECI CYNL 110251Z AUTO ///// 9SM BKN007 M14/M16 A3005 RMK AO1 PRESRR SLP235
SPECI CYNL 110242Z AUTO ///// 9SM SCT008 BKN010 M14/M17 A3004 RMK AO1 PRESRR SLP234
SPECI CYNL 110228Z AUTO ///// 9SM SCT009 M14/M16 A3002 RMK AO1 PRESRR SLP227
METAR CYNL 110200Z AUTO ///// 9SM OVC008 M13/M15 A3001 RMK AO1 PRESRR SLP222
METAR CYNL 110100Z AUTO ///// 6SM OVC007 M12/M14 A2997 RMK AO1 PRESRR SLP207
METAR CYNL 110000Z AUTO ///// 9SM OVC006 M12/M14 A2993 RMK AO1 PRESRR SLP194
METAR CYNL 102300Z AUTO ///// 4SM FEW003 OVC007 M12/M14 A2989 RMK AO1 PRESRR SLP180
METAR CYNL 102200Z AUTO ///// 9SM OVC007 M12/M13 A2984 RMK AO1 PRESRR SLP163
METAR CYNL 102100Z AUTO ///// 9SM OVC005 M12/M13 A2980 RMK AO1 SLP151
SPECI CYNL 102041Z AUTO ///// 9SM OVC005 M11/M13 A2980 RMK AO1 SLP150
METAR CYNL 102000Z AUTO 33008KT 6SM OVC004 M10/M12 A2980 RMK AO1 SLP148
METAR CYNL 101900Z AUTO 33006KT 9SM OVC003 M10/M12 A2979 RMK AO1 SLP143
SPECI CYNL 101838Z AUTO 33004KT 8SM OVC003 M10/M12 A2978 RMK AO1 SLP141
SPECI CYNL 101834Z AUTO 33006KT 3SM OVC002 M10/M12 A2977 RMK AO1 SLP140
SPECI CYNL 101833Z AUTO 34008KT 2 1/2SM OVC002 M10/M12 A2977 RMK AO1 SLP140
SPECI CYNL 101828Z AUTO 35006KT 4SM OVC002 M10/M12 A2977 RMK AO1 SLP139
SPECI CYNL 101824Z AUTO 35006KT 2 1/2SM OVC002 M10/M12 A2977 RMK AO1 SLP139
SPECI CYNL 101819Z AUTO 33004KT 5SM OVC002 M10/M12 A2978 RMK AO1 SLP140
SPECI CYNL 101815Z AUTO 35007KT 2SM OVC002 M10/M12 A2978 RMK AO1 SLP141
SPECI CYNL 101813Z AUTO 35006KT 1 3/4SM OVC002 M10/M12 A2978 RMK AO1 SLP141
SPECI CYNL 101809Z AUTO 34006KT 2 1/2SM OVC002 M10/M12 A2978 RMK AO1 SLP141
SPECI CYNL 101808Z AUTO 33007KT 1 3/4SM OVC002 M10/M12 A2978 RMK AO1 SLP141
SPECI CYNL 101805Z AUTO 34005KT 2SM OVC002 M10/M12 A2978 RMK AO1 SLP141
METAR CYNL 101800Z AUTO 34006KT 1 3/4SM OVC002 M10/M12 A2978 RMK AO1 SLP141
SPECI CYNL 101759Z AUTO 35005KT 1 3/4SM OVC002 M10/M12 A2978 RMK AO1 SLP141
SPECI CYNL 101755Z AUTO 32005KT 2SM OVC002 M10/M12 A2978 RMK AO1 SLP141
SPECI CYNL 101754Z AUTO 33006KT 1 3/4SM OVC002 M10/M12 A2978 RMK AO1 SLP141
SPECI CYNL 101753Z AUTO 32005KT 2SM OVC002 M10/M12 A2978 RMK AO1 SLP141
SPECI CYNL 101751Z AUTO 33004KT 3SM OVC002 M10/M12 A2978 RMK AO1 SLP141
SPECI CYNL 101749Z AUTO 33004KT 2 1/2SM OVC002 M10/M12 A2978 RMK AO1 SLP141
SPECI CYNL 101748Z AUTO 32004KT 1 1/2SM OVC002 M10/M12 A2978 RMK AO1 SLP141
SPECI CYNL 101744Z AUTO 33006KT 1 1/4SM OVC002 M10/M12 A2978 RMK AO1 SLP142
SPECI CYNL 101742Z AUTO 33004KT 2SM OVC002 M10/M12 A2978 RMK AO1 SLP142
SPECI CYNL 101741Z AUTO 34005KT 1 1/2SM OVC002 M10/M12 A2978 RMK AO1 SLP142
SPECI CYNL 101740Z AUTO 34006KT 1 1/4SM OVC002 M10/M12 A2978 RMK AO1 SLP142
SPECI CYNL 101739Z AUTO 34005KT 1 3/4SM OVC002 M11/M12 A2978 RMK AO1 SLP142
SPECI CYNL 101737Z AUTO 34004KT 1 3/4SM OVC003 M11/M12 A2978 RMK AO1 SLP141
SPECI CYNL 101736Z AUTO 34003KT 1 1/4SM OVC003 M11/M12 A2978 RMK AO1 SLP141
SPECI CYNL 101735Z AUTO 35003KT 3/4SM OVC003 M11/M12 A2978 RMK AO1 SLP141
SPECI CYNL 101725Z AUTO 04002KT 1/4SM VV003 M11/M12 A2978 RMK AO1 SLP142
SPECI CYNL 101721Z AUTO 00000KT 1/8SM VV003 M11/M12 A2978 RMK AO1 SLP143
SPECI CYNL 101720Z AUTO 00000KT 1/4SM VV003 M11/M12 A2978 RMK AO1 SLP143
SPECI CYNL 101704Z AUTO 00000KT 1/8SM VV003 M11/M13 A2978 RMK AO1 SLP143
METAR CYNL 101700Z AUTO 00000KT 1/4SM VV003 M11/M13 A2978 RMK AO1 SLP144
SPECI CYNL 101657Z AUTO 00000KT 1/4SM VV003 M11/M13 A2979 RMK AO1 PRESFR SLP144
SPECI CYNL 101629Z AUTO 00000KT 1/8SM VV003 M12/M14 A2978 RMK AO1 PRESFR SLP144
METAR CYNL 101600Z AUTO ///// 1/8SM VV002 M12/M14 A2979 RMK AO1 PRESFR SLP148
METAR CYNL 101500Z AUTO ///// 1/8SM VV002 M13/M15 A2982 RMK AO1 SLP159
SPECI CYNL 101433Z AUTO ///// 1/8SM OVC002 M13/M15 A2983 RMK AO1 SLP161
SPECI CYNL 101414Z AUTO ///// 5/8SM OVC002 M13/M15 A2984 RMK AO1 SLP165
SPECI CYNL 101413Z AUTO ///// 3/4SM OVC002 M13/M15 A2984 RMK AO1 SLP165
SPECI CYNL 101412Z AUTO ///// 1SM OVC002 M13/M15 A2984 RMK AO1 SLP165
SPECI CYNL 101411Z AUTO ///// 1 1/2SM OVC002 M13/M15 A2984 RMK AO1 SLP165
SPECI CYNL 101410Z AUTO ///// 1 1/4SM OVC002 M13/M15 A2984 RMK AO1 SLP165
SPECI CYNL 101407Z AUTO ///// 1SM OVC003 M13/M15 A2984 RMK AO1 SLP165
SPECI CYNL 101405Z AUTO ///// 3/4SM OVC003 M13/M15 A2984 RMK AO1 SLP166
SPECI CYNL 101402Z AUTO 16004KT 1 1/4SM OVC003 M13/M15 A2984 RMK AO1 SLP167
SPECI CYNL 101401Z AUTO ///// 2SM OVC003 M13/M15 A2984 RMK AO1 SLP167
METAR CYNL 101400Z AUTO ///// 1 3/4SM OVC003 M13/M15 A2984 RMK AO1 SLP167
SPECI CYNL 101358Z AUTO ///// 2 1/2SM OVC003 M13/M15 A2984 RMK AO1 SLP167
METAR CYNL 101300Z AUTO ///// 9SM OVC003 M13/M15 A2985 RMK AO1 PRESFR SLP168
METAR CYNL 101200Z AUTO 18004KT 9SM OVC003 M14/M16 A2987 RMK AO1 PRESFR SLP175
METAR CYNL 101100Z AUTO 18004KT 9SM OVC004 M14/M16 A2989 RMK AO1 SLP182
SPECI CYNL 101048Z AUTO 18004KT 9SM OVC004 M14/M16 A2989 RMK AO1 SLP183
METAR CYNL 101000Z AUTO 17004KT 9SM OVC005 M15/M17 A2990 RMK AO1 SLP185
METAR CYNL 100900Z AUTO 16005KT 9SM OVC006 M15/M18 A2991 RMK AO1 SLP190
METAR CYNL 100800Z AUTO 16008KT 9SM FEW005 BKN016 OVC046 M15/M18 A2990 RMK AO1 PRESFR SLP188
SPECI CYNL 100715Z AUTO 13004KT 9SM SCT006 BKN018 M16/M18 A2993 RMK AO1 SLP196
SPECI CYNL 100707Z AUTO 15004KT 9SM VV006 M15/M18 A2993 RMK AO1 SLP196
SPECI CYNL 100702Z AUTO 15004KT 9SM FEW006 M15/M18 A2993 RMK AO1 SLP197
METAR CYNL 100700Z AUTO 16005KT 9SM FEW045 M15/M18 A2993 RMK AO1 SLP197
SPECI CYNL 100606Z AUTO 16007KT 9SM SCT006 M15/M17 A2993 RMK AO1 SLP193
METAR CYNL 100600Z AUTO 13004KT 9SM BKN006 BKN009 M15/M17 A2992 RMK AO1 SLP192
METAR CYNL 100500Z AUTO 14008KT 9SM OVC005 M15/M17 A2992 RMK AO1 SLP192
SPECI CYNL 100417Z AUTO 11004KT 9SM OVC005 M15/M17 A2992 RMK AO1 SLP193
METAR CYNL 100400Z AUTO ///// 9SM OVC004 M15/M17 A2992 RMK AO1 SLP192
SPECI CYNL 100315Z AUTO ///// 9SM OVC004 M15/M17 A2993 RMK AO1 SLP195
METAR CYNL 100300Z AUTO 14006KT 9SM OVC005 M15/M17 A2993 RMK AO1 SLP195
METAR CYNL 100200Z AUTO 12006KT 9SM BKN008 BKN016 M15/M17 A2992 RMK AO1 SLP191
SPECI CYNL 100124Z AUTO 14005KT 9SM BKN008 OVC011 M15/M17 A2992 RMK AO1 SLP192
SPECI CYNL 100113Z AUTO 14004KT 9SM SCT007 OVC011 M15/M17 A2992 RMK AO1 SLP189
METAR CYNL 100100Z AUTO 14004KT 9SM BKN008 OVC014 M15/M17 A2991 RMK AO1 SLP188
METAR CYNL 100000Z AUTO 09004KT 9SM OVC005 M14/M16 A2991 RMK AO1 SLP186
METAR CYNL 092300Z AUTO ///// 9SM OVC005 M13/M15 A2990 RMK AO1 SLP180
METAR CYNL 092200Z AUTO ///// 9SM BKN006 BKN012 M13/M15 A2988 RMK AO1 PRESRR SLP174
SPECI CYNL 092155Z AUTO ///// 9SM BKN006 BKN012 M13/M15 A2988 RMK AO1 PRESRR SLP174
SPECI CYNL 092144Z AUTO ///// 9SM FEW002 SCT005 BKN010 M13/M15 A2987 RMK AO1 PRESRR SLP172
SPECI CYNL 092129Z AUTO ///// 9SM OVC005 M13/M15 A2986 RMK AO1 PRESRR SLP168
METAR CYNL 092100Z AUTO ///// 7SM OVC004 M13/M15 A2985 RMK AO1 PRESRR SLP166
SPECI CYNL 092023Z AUTO ///// 3SM OVC003 M13/M15 A2983 RMK AO1 PRESRR SLP158
SPECI CYNL 092021Z AUTO ///// 2 1/2SM OVC003 M13/M15 A2983 RMK AO1 PRESRR SLP158
SPECI CYNL 092012Z AUTO ///// 3SM OVC003 M13/M15 A2983 RMK AO1 PRESRR SLP157
SPECI CYNL 092010Z AUTO ///// 2SM OVC003 M13/M15 A2983 RMK AO1 PRESRR SLP158
SPECI CYNL 092009Z AUTO ///// 1 1/2SM OVC003 M13/M15 A2983 RMK AO1 PRESRR SLP158
SPECI CYNL 092004Z AUTO ///// 1 1/4SM OVC003 M13/M15 A2983 RMK AO1 PRESRR SLP158
SPECI CYNL 092002Z AUTO ///// 1 1/2SM OVC003 M13/M15 A2983 RMK AO1 PRESRR SLP158
METAR CYNL 092000Z AUTO ///// 1 1/4SM OVC003 M13/M15 A2983 RMK AO1 PRESRR SLP158
SPECI CYNL 091958Z AUTO ///// 1 1/4SM OVC003 M13/M15 A2983 RMK AO1 PRESRR SLP157
SPECI CYNL 091956Z AUTO ///// 1 3/4SM OVC003 M13/M15 A2983 RMK AO1 PRESRR SLP157
SPECI CYNL 091952Z AUTO ///// 2SM BKN003 OVC005 M13/M15 A2983 RMK AO1 PRESRR SLP157
SPECI CYNL 091947Z AUTO ///// 1 3/4SM BKN003 OVC005 M13/M15 A2982 RMK AO1 PRESRR SLP156
SPECI CYNL 091944Z AUTO ///// 2SM OVC003 M13/M15 A2982 RMK AO1 PRESRR SLP155
SPECI CYNL 091941Z AUTO ///// 1 3/4SM OVC003 M13/M15 A2982 RMK AO1 PRESRR SLP154
SPECI CYNL 091936Z AUTO ///// 2 1/2SM OVC003 M12/M14 A2982 RMK AO1 PRESRR SLP155
SPECI CYNL 091929Z AUTO ///// 3SM OVC003 M12/M14 A2983 RMK AO1 PRESRR SLP156
SPECI CYNL 091926Z AUTO ///// 2SM OVC003 M12/M14 A2983 RMK AO1 PRESRR SLP156
SPECI CYNL 091925Z AUTO ///// 1 3/4SM OVC003 M12/M14 A2983 RMK AO1 PRESRR SLP156
SPECI CYNL 091923Z AUTO ///// 2SM OVC003 M12/M14 A2982 RMK AO1 PRESRR SLP155
SPECI CYNL 091918Z AUTO ///// 1 1/2SM OVC003 M12/M14 A2982 RMK AO1 PRESRR SLP154
SPECI CYNL 091917Z AUTO ///// 1 1/4SM OVC003 M12/M14 A2982 RMK AO1 PRESRR SLP153
SPECI CYNL 091915Z AUTO 08006KT 1 3/4SM OVC003 M12/M14 A2982 RMK AO1 PRESRR SLP153
SPECI CYNL 091909Z AUTO ///// 2 1/2SM OVC003 M12/M14 A2981 RMK AO1 PRESRR SLP150
SPECI CYNL 091906Z AUTO ///// 3SM OVC003 M12/M14 A2981 RMK AO1 PRESRR SLP150
SPECI CYNL 091902Z AUTO ///// 2SM OVC003 M12/M14 A2981 RMK AO1 PRESRR SLP150
SPECI CYNL 091901Z AUTO ///// 1SM OVC003 M12/M14 A2981 RMK AO1 PRESRR SLP149
METAR CYNL 091900Z AUTO ///// 5/8SM OVC003 M12/M14 A2981 RMK AO1 PRESRR SLP149
SPECI CYNL 091855Z AUTO ///// 5/8SM OVC003 M12/M14 A2981 RMK AO1 PRESRR SLP148
SPECI CYNL 091854Z AUTO ///// 1 1/4SM OVC003 M12/M14 A2981 RMK AO1 PRESRR SLP148
SPECI CYNL 091853Z AUTO 08007KT 2SM OVC003 M12/M14 A2981 RMK AO1 PRESRR SLP148
SPECI CYNL 091848Z AUTO ///// 3SM OVC003 M12/M14 A2981 RMK AO1 PRESRR SLP149
SPECI CYNL 091847Z AUTO ///// 2 1/2SM OVC003 M12/M14 A2981 RMK AO1 PRESRR SLP149
SPECI CYNL 091846Z AUTO ///// 1 1/2SM OVC003 M12/M14 A2981 RMK AO1 PRESRR SLP149
SPECI CYNL 091844Z AUTO ///// 1 1/4SM OVC003 M12/M14 A2981 RMK AO1 PRESRR SLP149
SPECI CYNL 091843Z AUTO ///// 1 1/2SM OVC003 M12/M14 A2981 RMK AO1 PRESRR SLP148
SPECI CYNL 091841Z AUTO ///// 2SM OVC003 M12/M14 A2980 RMK AO1 PRESRR SLP147
SPECI CYNL 091839Z AUTO ///// 3SM OVC003 M12/M14 A2980 RMK AO1 PRESRR SLP146
SPECI CYNL 091836Z AUTO ///// 2 1/2SM OVC003 M12/M14 A2980 RMK AO1 PRESRR SLP146
SPECI CYNL 091830Z AUTO ///// 3SM OVC003 M12/M14 A2980 RMK AO1 PRESRR SLP145
SPECI CYNL 091829Z AUTO ///// 2SM OVC003 M12/M14 A2980 RMK AO1 PRESRR SLP145
SPECI CYNL 091827Z AUTO ///// 1 1/2SM OVC003 M12/M14 A2980 RMK AO1 PRESRR SLP145
SPECI CYNL 091826Z AUTO ///// 2SM OVC003 M12/M14 A2980 RMK AO1 PRESRR SLP145
SPECI CYNL 091825Z AUTO ///// 3SM OVC003 M12/M14 A2980 RMK AO1 PRESRR SLP146
SPECI CYNL 091823Z AUTO ///// 2SM OVC003 M12/M14 A2980 RMK AO1 PRESRR SLP145
SPECI CYNL 091820Z AUTO ///// 1 3/4SM OVC003 M12/M14 A2980 RMK AO1 PRESRR SLP145
SPECI CYNL 091819Z AUTO ///// 2SM OVC003 M12/M14 A2980 RMK AO1 PRESRR SLP145
SPECI CYNL 091818Z AUTO ///// 1 1/2SM OVC003 M12/M14 A2980 RMK AO1 PRESRR SLP146
SPECI CYNL 091817Z AUTO ///// 1SM OVC003 M12/M14 A2980 RMK AO1 PRESRR SLP146
SPECI CYNL 091816Z AUTO ///// 3/4SM OVC003 M12/M14 A2980 RMK AO1 PRESRR SLP145
SPECI CYNL 091814Z AUTO ///// 1SM OVC003 M12/M14 A2979 RMK AO1 PRESRR SLP144
SPECI CYNL 091813Z AUTO ///// 3/4SM OVC003 M12/M14 A2979 RMK AO1 PRESRR SLP144
SPECI CYNL 091812Z AUTO ///// 5/8SM OVC003 M12/M14 A2979 RMK AO1 PRESRR SLP144
SPECI CYNL 091811Z AUTO ///// 3/4SM OVC003 M12/M14 A2979 RMK AO1 PRESRR SLP144
SPECI CYNL 091808Z AUTO ///// 1 1/4SM OVC003 M12/M14 A2979 RMK AO1 PRESRR SLP144
SPECI CYNL 091805Z AUTO ///// 1 1/2SM OVC003 M12/M14 A2979 RMK AO1 PRESRR SLP143
SPECI CYNL 091804Z AUTO ///// 1SM OVC003 M12/M14 A2979 RMK AO1 PRESRR SLP142
SPECI CYNL 091802Z AUTO ///// 2 1/2SM OVC003 M12/M14 A2978 RMK AO1 PRESRR SLP141
SPECI CYNL 091801Z AUTO ///// 5SM OVC003 M12/M14 A2978 RMK AO1 PRESRR SLP141
METAR CYNL 091800Z AUTO ///// 2 1/2SM OVC003 M12/M14 A2978 RMK AO1 PRESRR SLP141
SPECI CYNL 091758Z AUTO ///// 2 1/2SM OVC003 M12/M14 A2978 RMK AO1 PRESRR SLP140
SPECI CYNL 091717Z AUTO ///// 8SM BKN003 OVC005 M12/M14 A2976 RMK AO1 SLP132
SPECI CYNL 091715Z AUTO ///// 6SM SCT003 OVC005 M12/M14 A2976 RMK AO1 SLP132
METAR CYNL 091700Z AUTO ///// 6SM OVC003 M12/M14 A2975 RMK AO1 SLP128
SPECI CYNL 091655Z AUTO ///// 3SM OVC003 M12/M13 A2975 RMK AO1 SLP128
SPECI CYNL 091653Z AUTO ///// 1 3/4SM OVC003 M12/M13 A2975 RMK AO1 SLP128
SPECI CYNL 091651Z AUTO ///// 2SM OVC003 M11/M13 A2975 RMK AO1 SLP128
SPECI CYNL 091650Z AUTO ///// 2SM OVC002 M11/M13 A2975 RMK AO1 SLP128
SPECI CYNL 091649Z AUTO ///// 1 1/2SM OVC002 M11/M13 A2975 RMK AO1 SLP128
SPECI CYNL 091647Z AUTO ///// 1SM OVC002 M11/M13 A2975 RMK AO1 SLP128
SPECI CYNL 091645Z AUTO ///// 1 3/4SM OVC002 M11/M13 A2975 RMK AO1 SLP128
SPECI CYNL 091643Z AUTO ///// 1SM OVC003 M11/M13 A2975 RMK AO1 SLP128
SPECI CYNL 091641Z AUTO ///// 3/4SM OVC003 M11/M13 A2975 RMK AO1 SLP128
SPECI CYNL 091639Z AUTO ///// 5/8SM OVC003 M11/M13 A2975 RMK AO1 SLP127
SPECI CYNL 091637Z AUTO ///// 1 3/4SM OVC003 M11/M13 A2975 RMK AO1 SLP127
SPECI CYNL 091636Z AUTO ///// 2 1/2SM OVC003 M11/M13 A2975 RMK AO1 SLP127
SPECI CYNL 091635Z AUTO ///// 3SM OVC003 M11/M13 A2975 RMK AO1 SLP127
SPECI CYNL 091632Z AUTO ///// 2 1/2SM OVC002 M11/M13 A2975 RMK AO1 SLP128
SPECI CYNL 091631Z AUTO ///// 4SM OVC002 M11/M13 A2975 RMK AO1 SLP128
SPECI CYNL 091630Z AUTO ///// 2 1/2SM OVC002 M11/M13 A2975 RMK AO1 SLP128
SPECI CYNL 091628Z AUTO ///// 1 1/2SM OVC002 M11/M13 A2975 RMK AO1 SLP128
SPECI CYNL 091625Z AUTO ///// 1 1/4SM OVC002 M11/M13 A2975 RMK AO1 SLP128
SPECI CYNL 091624Z AUTO ///// 1 3/4SM OVC002 M11/M13 A2975 RMK AO1 SLP128
SPECI CYNL 091623Z AUTO ///// 2SM OVC002 M11/M13 A2975 RMK AO1 SLP128
SPECI CYNL 091620Z AUTO ///// 1 3/4SM OVC002 M11/M13 A2975 RMK AO1 SLP128
SPECI CYNL 091614Z AUTO 08007KT 1 1/4SM OVC002 M11/M13 A2975 RMK AO1 SLP126
SPECI CYNL 091612Z AUTO ///// 1 3/4SM OVC002 M11/M13 A2974 RMK AO1 SLP126
SPECI CYNL 091611Z AUTO ///// 2SM OVC002 M11/M13 A2974 RMK AO1 SLP125
SPECI CYNL 091609Z AUTO ///// 1 1/2SM OVC002 M11/M13 A2974 RMK AO1 SLP125
SPECI CYNL 091608Z AUTO ///// 1SM OVC002 M11/M13 A2974 RMK AO1 SLP124
SPECI CYNL 091607Z AUTO ///// 1 1/2SM OVC002 M11/M13 A2974 RMK AO1 SLP124
SPECI CYNL 091602Z AUTO ///// 1 1/4SM OVC002 M11/M13 A2974 RMK AO1 SLP123
SPECI CYNL 091601Z AUTO ///// 1 3/4SM OVC002 M11/M13 A2974 RMK AO1 SLP123
METAR CYNL 091600Z AUTO 07007KT 3SM OVC002 M11/M13 A2974 RMK AO1 SLP123
SPECI CYNL 091559Z AUTO 06007KT 3SM OVC002 M11/M13 A2974 RMK AO1 SLP123
SPECI CYNL 091557Z AUTO ///// 2 1/2SM OVC002 M11/M13 A2974 RMK AO1 SLP123
SPECI CYNL 091556Z AUTO ///// 1 3/4SM OVC002 M11/M13 A2974 RMK AO1 SLP123
SPECI CYNL 091554Z AUTO ///// 1SM OVC002 M11/M13 A2974 RMK AO1 SLP123
SPECI CYNL 091553Z AUTO ///// 3/4SM OVC002 M11/M13 A2974 RMK AO1 SLP123
SPECI CYNL 091551Z AUTO 07007KT 5/8SM OVC003 M11/M13 A2974 RMK AO1 SLP123
SPECI CYNL 091547Z AUTO 06006KT 1SM OVC003 M11/M13 A2973 RMK AO1 SLP122
SPECI CYNL 091546Z AUTO 07006KT 1 1/2SM OVC003 M11/M13 A2973 RMK AO1 SLP122
SPECI CYNL 091545Z AUTO 06005KT 2SM OVC003 M11/M13 A2973 RMK AO1 SLP122
SPECI CYNL 091544Z AUTO 07005KT 1 1/2SM OVC002 M11/M13 A2973 RMK AO1 SLP121
SPECI CYNL 091543Z AUTO 07006KT 1SM OVC002 M11/M13 A2973 RMK AO1 SLP121
SPECI CYNL 091542Z AUTO 07007KT 1 1/4SM OVC003 M11/M13 A2973 RMK AO1 SLP121
SPECI CYNL 091541Z AUTO 06006KT 1 3/4SM OVC003 M11/M13 A2973 RMK AO1 SLP121
SPECI CYNL 091540Z AUTO 06005KT 2 1/2SM OVC003 M11/M13 A2973 RMK AO1 SLP120
SPECI CYNL 091538Z AUTO 07006KT 1 3/4SM OVC003 M11/M13 A2972 RMK AO1 SLP119
SPECI CYNL 091536Z AUTO 10006KT 1SM OVC003 M11/M13 A2972 RMK AO1 SLP118
SPECI CYNL 091534Z AUTO 09006KT 1 1/4SM OVC003 M11/M13 A2972 RMK AO1 SLP118
SPECI CYNL 091530Z AUTO 08007KT 2SM OVC003 M11/M13 A2972 RMK AO1 SLP117
SPECI CYNL 091525Z AUTO 08007KT 5SM OVC003 M11/M13 A2971 RMK AO1 SLP116
SPECI CYNL 091523Z AUTO 10006KT 5SM OVC002 M11/M13 A2971 RMK AO1 SLP115
SPECI CYNL 091519Z AUTO 11005KT 2 1/2SM OVC002 M11/M13 A2971 RMK AO1 SLP115
SPECI CYNL 091518Z AUTO 11004KT 3SM OVC002 M11/M13 A2971 RMK AO1 SLP115
SPECI CYNL 091514Z AUTO 11005KT 1 1/2SM OVC002 M11/M13 A2972 RMK AO1 SLP116
SPECI CYNL 091511Z AUTO 11006KT 1SM OVC002 M11/M13 A2972 RMK AO1 SLP116
SPECI CYNL 091510Z AUTO 11006KT 1 1/2SM OVC002 M11/M13 A2972 RMK AO1 SLP116
SPECI CYNL 091509Z AUTO 10005KT 2SM OVC003 M11/M13 A2972 RMK AO1 SLP116
SPECI CYNL 091505Z AUTO 11004KT 3SM OVC003 M11/M13 A2972 RMK AO1 SLP116
SPECI CYNL 091504Z AUTO 11005KT 1 1/2SM OVC003 M11/M13 A2972 RMK AO1 SLP117
SPECI CYNL 091502Z AUTO 12005KT 1 1/4SM OVC003 M11/M13 A2972 RMK AO1 SLP116
SPECI CYNL 091501Z AUTO 12005KT 3SM OVC003 M11/M13 A2972 RMK AO1 SLP116
METAR CYNL 091500Z AUTO 12005KT 2 1/2SM OVC003 M11/M13 A2972 RMK AO1 SLP116
SPECI CYNL 091458Z AUTO 12005KT 2SM OVC003 M11/M13 A2972 RMK AO1 SLP116
METAR CYNL 091400Z AUTO 11005KT 9SM OVC003 M11/M13 A2973 RMK AO1 SLP119
METAR CYNL 091300Z AUTO 11005KT 9SM OVC004 M11/M13 A2972 RMK AO1 SLP117
SPECI CYNL 091257Z AUTO 11005KT 9SM OVC004 M11/M13 A2972 RMK AO1 PRESFR SLP118
SPECI CYNL 091202Z AUTO ///// 9SM OVC005 M11/M13 A2973 RMK AO1 PRESFR SLP121
METAR CYNL 091200Z AUTO ///// 9SM OVC004 M11/M13 A2973 RMK AO1 PRESFR SLP121
SPECI CYNL 091101Z AUTO ///// 9SM OVC004 M11/M13 A2975 RMK AO1 PRESFR SLP129
METAR CYNL 091100Z AUTO ///// 9SM OVC005 M11/M13 A2975 RMK AO1 PRESFR SLP129
METAR CYNL 091000Z AUTO ///// 9SM OVC006 M12/M13 A2979 RMK AO1 PRESFR SLP142
METAR CYNL 090900Z AUTO ///// 9SM BKN006 OVC007 M12/M14 A2981 RMK AO1 PRESFR SLP150
METAR CYNL 090800Z AUTO 12005KT 9SM BKN006 OVC160 M12/M14 A2983 RMK AO1 PRESFR SLP156
SPECI CYNL 090757Z AUTO ///// 9SM BKN006 OVC160 M12/M14 A2984 RMK AO1 PRESFR SLP156
SPECI CYNL 090720Z AUTO ///// 9SM FEW005 BKN110 M12/M13 A2986 RMK AO1 PRESFR SLP165
METAR CYNL 090700Z AUTO 11005KT 9SM BKN066 OVC110 M11/M13 A2986 RMK AO1 PRESFR SLP166
METAR CYNL 090600Z AUTO 12005KT 9SM BKN048 OVC064 M11/M13 A2990 RMK AO1 PRESFR SLP175
SPECI CYNL 090528Z AUTO ///// 9SM SCT007 OVC064 M11/M13 A2990 RMK AO1 PRESFR SLP176
METAR CYNL 090500Z AUTO 10003KT 9SM OVC007 M11/M13 A2992 RMK AO1 PRESFR SLP184
METAR CYNL 090400Z AUTO 11002KT 9SM OVC005 M11/M13 A2995 RMK AO1 PRESFR SLP192
METAR CYNL 090300Z AUTO 18002KT 9SM OVC005 M11/M13 A2998 RMK AO1 PRESFR SLP202
METAR CYNL 090200Z AUTO 00000KT 9SM OVC005 M11/M13 A3002 RMK AO1 SLP217
METAR CYNL 090100Z AUTO 00000KT 9SM OVC005 M12/M13 A3001 RMK AO1 SLP215
METAR CYNL 090000Z AUTO 00000KT 9SM OVC007 M12/M14 A3002 RMK AO1 PRESFR SLP218
SPECI CYNL 082335Z AUTO 00000KT 9SM BKN008 BKN010 OVC110 M12/M14 A3003 RMK AO1 SLP221
SPECI CYNL 082334Z AUTO ///// 9SM SCT008 BKN010 OVC110 M12/M14 A3003 RMK AO1 SLP221
SPECI CYNL 082327Z AUTO 00000KT 9SM BKN009 BKN110 OVC140 M12/M14 A3003 RMK AO1 SLP222
SPECI CYNL 082324Z AUTO 00000KT 9SM BKN010 BKN110 OVC140 M12/M14 A3003 RMK AO1 SLP222
METAR CYNL 082300Z AUTO 33002KT 9SM SCT110 BKN140 M12/M14 A3004 RMK AO1 SLP226
METAR CYNL 082200Z AUTO 32004KT 9SM FEW010 OVC150 M12/M14 A3003 RMK AO1 SLP220
SPECI CYNL 082144Z AUTO 34005KT 9SM SCT010 BKN120 BKN150 M11/M13 A3003 RMK AO1 SLP219
SPECI CYNL 082128Z AUTO 34006KT 9SM OVC010 M11/M13 A3002 RMK AO1 SLP217
METAR CYNL 082100Z AUTO 33006KT 9SM BKN009 OVC011 M10/M12 A3003 RMK AO1 SLP218
SPECI CYNL 082054Z AUTO 32004KT 7SM BKN009 OVC012 M11/M12 A3003 RMK AO1 SLP218
SPECI CYNL 082018Z AUTO 32007G15KT 9SM FEW008 OVC013 M10/M12 A3002 RMK AO1 SLP215
METAR CYNL 082000Z AUTO 34010G15KT 9SM OVC012 M10/M12 A3001 RMK AO1 SLP213
METAR CYNL 081900Z AUTO 34007KT 9SM OVC010 M08/M10 A3000 RMK AO1 SLP208
METAR CYNL 081800Z AUTO 33006G16KT 9SM BKN012 OVC018 M08/M10 A2999 RMK AO1 SLP204
SPECI CYNL 081745Z AUTO 32008G16KT 9SM BKN013 OVC018 M08/M10 A2999 RMK AO1 SLP201
SPECI CYNL 081744Z AUTO 33009G16KT 9SM SCT013 OVC018 M08/M10 A2999 RMK AO1 SLP201
SPECI CYNL 081743Z AUTO 33009G16KT 9SM BKN014 OVC018 M08/M10 A2999 RMK AO1 SLP201
SPECI CYNL 081727Z AUTO 32008KT 9SM SCT013 OVC017 M08/M10 A2999 RMK AO1 SLP202
SPECI CYNL 081707Z AUTO 31008KT 9SM BKN013 OVC017 M08/M10 A2998 RMK AO1 SLP200
SPECI CYNL 081706Z AUTO 31008KT 9SM SCT013 OVC017 M08/M10 A2998 RMK AO1 SLP200
SPECI CYNL 081705Z AUTO 31009KT 9SM BKN013 OVC017 M08/M10 A2998 RMK AO1 SLP200
SPECI CYNL 081704Z AUTO 32010KT 9SM SCT013 BKN016 OVC019 M08/M10 A2998 RMK AO1 SLP200
SPECI CYNL 081703Z AUTO 31008KT 9SM BKN014 OVC019 M08/M10 A2998 RMK AO1 SLP200
METAR CYNL 081700Z AUTO 31008KT 9SM BKN015 OVC019 M08/M10 A2998 RMK AO1 SLP198
METAR CYNL 081600Z AUTO 32010G15KT 7SM OVC018 M09/M10 A2996 RMK AO1 SLP193
METAR CYNL 081500Z AUTO 33013KT 5SM OVC018 M09/M10 A2995 RMK AO1 PRESRR SLP190
SPECI CYNL 081417Z AUTO 32008G15KT 9SM OVC024 M09/M10 A2993 RMK AO1 PRESRR SLP187
METAR CYNL 081400Z AUTO 32007G16KT 9SM FEW016 OVC025 M09/M10 A2992 RMK AO1 PRESRR SLP184
SPECI CYNL 081359Z AUTO 31007G16KT 9SM FEW016 OVC025 M09/M10 A2993 RMK AO1 PRESRR SLP184
METAR CYNL 081300Z AUTO 31010G19KT 4SM SCT014 OVC024 M09/M10 A2990 RMK AO1 SLP176
SPECI CYNL 081255Z AUTO 31011G20KT 6SM SCT013 OVC024 M09/M10 A2990 RMK AO1 SLP176
SPECI CYNL 081252Z AUTO 31011G20KT 9SM FEW009 SCT013 OVC025 M09/M10 A2990 RMK AO1 SLP177
SPECI CYNL 081251Z AUTO 31011G20KT 8SM FEW009 SCT013 BKN019 M09/M10 A2990 RMK AO1 SLP177
SPECI CYNL 081239Z AUTO 32009G19KT 3SM SCT009 BKN013 OVC025 M08/M10 A2990 RMK AO1 SLP176
SPECI CYNL 081238Z AUTO 32008G19KT 2 1/2SM SCT009 BKN013 BKN017 M08/M10 A2990 RMK AO1 SLP175
SPECI CYNL 081235Z AUTO 31013G19KT 2 1/2SM VV016 M08/M10 A2990 RMK AO1 SLP175
SPECI CYNL 081232Z AUTO 32012G20KT 2 1/2SM SCT009 BKN013 OVC023 M08/M10 A2990 RMK AO1 SLP175
SPECI CYNL 081231Z AUTO 32013G20KT 3SM SCT009 BKN013 OVC017 M08/M10 A2990 RMK AO1 SLP175
METAR CYNL 081200Z AUTO 32013G22KT 9SM OVC008 M08/M10 A2988 RMK AO1 SLP171
METAR CYNL 081100Z AUTO 31012G23KT 5SM FEW005 OVC007 M09/M10 A2987 RMK AO1 PRESRR SLP166
SPECI CYNL 081028Z AUTO 31014G23KT 3SM SCT003 OVC007 M08/M09 A2985 RMK AO1 SLP159
SPECI CYNL 081019Z AUTO 31014G23KT 2SM SCT003 BKN005 OVC007 M08/M09 A2985 RMK AO1 SLP159
SPECI CYNL 081018Z AUTO 31014G23KT 2SM BKN003 OVC007 M08/M09 A2985 RMK AO1 SLP159
SPECI CYNL 081017Z AUTO 31012G18KT 2SM SCT003 BKN005 OVC007 M08/M09 A2985 RMK AO1 SLP159
SPECI CYNL 081015Z AUTO ///// 2SM SCT003 BKN006 OVC007 M08/M09 A2985 RMK AO1 SLP159
METAR CYNL 081000Z AUTO 30014G24KT 1 3/4SM FEW003 OVC006 M08/M09 A2984 RMK AO1 SLP156
SPECI CYNL 080955Z AUTO ///// 2 1/2SM FEW004 OVC006 M08/M09 A2983 RMK AO1 SLP154
SPECI CYNL 080907Z AUTO 30011G22KT 3SM SCT003 OVC007 M08/M09 A2982 RMK AO1 SLP150
METAR CYNL 080900Z AUTO 29012KT 2SM SCT003 OVC007 M08/M09 A2983 RMK AO1 SLP151
SPECI CYNL 080859Z AUTO ///// 2SM SCT003 OVC007 M08/M09 A2982 RMK AO1 SLP151
SPECI CYNL 080857Z AUTO 30011G19KT 1 3/4SM SCT003 OVC007 M08/M09 A2982 RMK AO1 SLP151
SPECI CYNL 080851Z AUTO ///// 2SM SCT003 OVC007 M08/M09 A2982 RMK AO1 SLP151
SPECI CYNL 080849Z AUTO 30013G26KT 1 3/4SM SCT003 OVC007 M08/M09 A2982 RMK AO1 SLP151
SPECI CYNL 080845Z AUTO 29014G26KT 2SM SCT003 OVC007 M08/M09 A2982 RMK AO1 SLP150
SPECI CYNL 080843Z AUTO 30012G20KT 1 1/2SM SCT003 OVC007 M08/M09 A2982 RMK AO1 SLP150
SPECI CYNL 080841Z AUTO 30010G19KT 1 1/4SM VV006 M08/M09 A2982 RMK AO1 SLP150
SPECI CYNL 080839Z AUTO 30011G19KT 1 1/2SM VV005 M08/M09 A2982 RMK AO1 SLP150
SPECI CYNL 080825Z AUTO 30011G20KT 1 1/4SM SCT003 BKN006 OVC007 M08/M09 A2982 RMK AO1 SLP151
SPECI CYNL 080823Z AUTO 29013G20KT 1 1/2SM SCT003 BKN006 OVC007 M08/M09 A2982 RMK AO1 SLP151
SPECI CYNL 080818Z AUTO 29011G19KT 1SM SCT003 BKN006 OVC007 M08/M09 A2982 RMK AO1 SLP150
SPECI CYNL 080809Z AUTO 29017KT 1 1/4SM OVC003 M08/M09 A2983 RMK AO1 SLP153
SPECI CYNL 080807Z AUTO 29015G20KT 1 3/4SM OVC003 M08/M09 A2983 RMK AO1 SLP153
SPECI CYNL 080802Z AUTO ///// 2 1/2SM OVC003 M08/M09 A2982 RMK AO1 SLP151
SPECI CYNL 080801Z AUTO 29012G20KT 3SM OVC003 M08/M09 A2982 RMK AO1 SLP151
METAR CYNL 080800Z AUTO 29012G20KT 2 1/2SM OVC003 M08/M09 A2982 RMK AO1 SLP152
SPECI CYNL 080710Z AUTO 28010G22KT 4SM OVC003 M08/M09 A2983 RMK AO1 PRESFR SLP153
SPECI CYNL 080707Z AUTO 27016G22KT 2SM OVC003 M08/M09 A2983 RMK AO1 PRESFR SLP153
METAR CYNL 080700Z AUTO 28012G23KT 4SM OVC003 M08/M09 A2984 RMK AO1 PRESFR SLP155
SPECI CYNL 080658Z AUTO 28012G23KT 4SM OVC003 M08/M09 A2984 RMK AO1 PRESFR SLP155
SPECI CYNL 080656Z AUTO 28014G23KT 2 1/2SM OVC003 M08/M09 A2984 RMK AO1 SLP155
METAR CYNL 080600Z AUTO 28008G16KT 9SM OVC004 M07/M09 A2986 RMK AO1 SLP163
SPECI CYNL 080555Z AUTO 28010G16KT 9SM OVC004 M07/M09 A2986 RMK AO1 SLP164
METAR CYNL 080500Z AUTO 28008KT 9SM OVC005 M07/M09 A2988 RMK AO1 SLP168
METAR CYNL 080400Z AUTO 27005KT 9SM OVC006 M09/M10 A2989 RMK AO1 SLP178
SPECI CYNL 080338Z AUTO 29003KT 9SM OVC005 M10/M11 A2990 RMK AO1 SLP181
SPECI CYNL 080309Z AUTO 24003KT 9SM OVC003 M10/M12 A2990 RMK AO1 SLP182
METAR CYNL 080300Z AUTO 25003KT 9SM OVC002 M10/M12 A2990 RMK AO1 SLP183
SPECI CYNL 080255Z AUTO 00000KT 7SM OVC002 M10/M12 A2990 RMK AO1 SLP184
METAR CYNL 080200Z AUTO 00000KT 9SM OVC003 M11/M12 A2992 RMK AO1 SLP190
METAR CYNL 080100Z AUTO 00000KT 9SM BKN004 OVC009 M11/M13 A2993 RMK AO1 SLP192
SPECI CYNL 080040Z AUTO 00000KT 9SM BKN004 OVC009 M11/M13 A2994 RMK AO1 SLP195
METAR CYNL 080000Z AUTO 13002KT 9SM OVC005 M11/M13 A2995 RMK AO1 SLP200
SPECI CYNL 072338Z AUTO 00000KT 9SM BKN005 OVC082 M12/M14 A2995 RMK AO1 SLP201
SPECI CYNL 072322Z AUTO 21004KT 9SM VV004 M12/M14 A2996 RMK AO1 SLP202
METAR CYNL 072300Z AUTO 00000KT 9SM OVC006 M12/M14 A2997 RMK AO1 SLP207
METAR CYNL 072200Z AUTO 00000KT 9SM BKN007 OVC076 M12/M14 A2998 RMK AO1 SLP210
SPECI CYNL 072157Z AUTO 00000KT 9SM BKN007 OVC076 M12/M14 A2998 RMK AO1 SLP210
METAR CYNL 072100Z AUTO 00000KT 9SM SCT006 BKN064 M13/M15 A2996 RMK AO1 SLP205
SPECI CYNL 072059Z AUTO 00000KT 9SM SCT006 BKN064 M13/M15 A2996 RMK AO1 SLP205
SPECI CYNL 072051Z AUTO 18002KT 9SM BKN006 BKN064 M13/M15 A2997 RMK AO1 SLP206
SPECI CYNL 072027Z AUTO 19002KT 9SM SCT006 OVC064 M13/M15 A2997 RMK AO1 SLP206
METAR CYNL 072000Z AUTO 00000KT 9SM OVC005 M13/M15 A2997 RMK AO1 SLP208
SPECI CYNL 071907Z AUTO 00000KT 9SM BKN005 M12/M14 A2998 RMK AO1 PRESFR SLP209
SPECI CYNL 071905Z AUTO 00000KT 9SM SCT005 M12/M14 A2998 RMK AO1 PRESFR SLP209
METAR CYNL 071900Z AUTO 00000KT 9SM VV005 M12/M14 A2998 RMK AO1 PRESFR SLP208
SPECI CYNL 071817Z AUTO 00000KT 9SM FEW002 SCT006 BKN150 M13/M15 A2998 RMK AO1 SLP210
METAR CYNL 071800Z AUTO 00000KT 9SM VV006 M13/M15 A3000 RMK AO1 SLP216
METAR CYNL 071700Z AUTO 08003KT 9SM OVC005 M14/M16 A2999 RMK AO1 SLP216
SPECI CYNL 071622Z AUTO 00000KT 9SM VV005 M14/M16 A3000 RMK AO1 SLP218
METAR CYNL 071600Z AUTO 25002KT 9SM OVC004 M15/M17 A2999 RMK AO1 SLP217
METAR CYNL 071500Z AUTO 28003KT 9SM BKN003 M15/M17 A3000 RMK AO1 SLP221
SPECI CYNL 071424Z AUTO 00000KT 9SM VV004 M14/M16 A3001 RMK AO1 SLP222
SPECI CYNL 071414Z AUTO 00000KT 9SM VV005 M14/M16 A3000 RMK AO1 SLP220
METAR CYNL 071400Z AUTO 00000KT 9SM OVC003 M14/M16 A3001 RMK AO1 SLP223
METAR CYNL 071300Z AUTO 00000KT 9SM OVC003 M13/M15 A3001 RMK AO1 SLP223
METAR CYNL 071200Z AUTO 00000KT 9SM OVC003 M13/M15 A3002 RMK AO1 SLP225
METAR CYNL 071100Z AUTO 31003KT 9SM OVC003 M13/M15 A3003 RMK AO1 SLP228
METAR CYNL 071000Z AUTO 27004KT 9SM OVC003 M13/M15 A3004 RMK AO1 SLP229
METAR CYNL 070900Z AUTO 28006KT 4SM OVC003 M13/M15 A3004 RMK AO1 SLP231
SPECI CYNL 070852Z AUTO ///// 3SM OVC003 M13/M15 A3004 RMK AO1 SLP233
SPECI CYNL 070849Z AUTO ///// 2 1/2SM OVC003 M13/M15 A3004 RMK AO1 SLP233
SPECI CYNL 070845Z AUTO ///// 3SM OVC003 M13/M15 A3004 RMK AO1 SLP233
SPECI CYNL 070842Z AUTO ///// 2 1/2SM OVC003 M13/M15 A3005 RMK AO1 SLP234
SPECI CYNL 070839Z AUTO ///// 3SM OVC003 M13/M15 A3005 RMK AO1 SLP234
SPECI CYNL 070837Z AUTO ///// 2 1/2SM OVC003 M13/M15 A3005 RMK AO1 SLP234
SPECI CYNL 070831Z AUTO ///// 4SM OVC003 M13/M15 A3004 RMK AO1 SLP233
SPECI CYNL 070829Z AUTO ///// 2 1/2SM OVC003 M13/M15 A3004 RMK AO1 SLP233
SPECI CYNL 070819Z AUTO ///// 3SM OVC003 M13/M15 A3004 RMK AO1 SLP232
SPECI CYNL 070816Z AUTO ///// 2 1/2SM OVC003 M13/M15 A3004 RMK AO1 SLP231
METAR CYNL 070800Z AUTO ///// 3SM OVC003 M13/M15 A3004 RMK AO1 SLP232
SPECI CYNL 070742Z AUTO ///// 3SM OVC003 M13/M15 A3005 RMK AO1 SLP236
SPECI CYNL 070737Z AUTO ///// 3SM OVC002 M13/M15 A3004 RMK AO1 SLP235
SPECI CYNL 070727Z AUTO ///// 2 1/2SM OVC002 M13/M15 A3005 RMK AO1 SLP237
SPECI CYNL 070726Z AUTO ///// 3SM OVC002 M13/M15 A3005 RMK AO1 SLP237
SPECI CYNL 070723Z AUTO ///// 2 1/2SM OVC002 M13/M15 A3005 RMK AO1 SLP237
SPECI CYNL 070720Z AUTO ///// 4SM OVC002 M13/M15 A3005 RMK AO1 SLP237
SPECI CYNL 070714Z AUTO ///// 2SM OVC002 M13/M15 A3005 RMK AO1 SLP237
SPECI CYNL 070712Z AUTO ///// 1 3/4SM OVC002 M13/M15 A3005 RMK AO1 SLP237
SPECI CYNL 070708Z AUTO ///// 1 3/4SM OVC002 M13/M15 A3005 RMK AO1 SLP237
SPECI CYNL 070704Z AUTO ///// 3SM OVC002 M13/M15 A3005 RMK AO1 SLP237
SPECI CYNL 070703Z AUTO 28007KT 2 1/2SM OVC002 M13/M15 A3005 RMK AO1 SLP237
SPECI CYNL 070701Z AUTO ///// 3SM OVC002 M13/M15 A3005 RMK AO1 SLP236
METAR CYNL 070700Z AUTO ///// 2 1/2SM OVC002 M13/M15 A3005 RMK AO1 SLP236
SPECI CYNL 070658Z AUTO ///// 3SM OVC002 M13/M15 A3005 RMK AO1 SLP237
SPECI CYNL 070655Z AUTO ///// 2 1/2SM OVC002 M13/M14 A3005 RMK AO1 SLP238
SPECI CYNL 070653Z AUTO 28005KT 3SM OVC002 M13/M14 A3005 RMK AO1 SLP238
SPECI CYNL 070652Z AUTO 28006KT 2SM OVC003 M13/M14 A3005 RMK AO1 SLP238
SPECI CYNL 070650Z AUTO 29007KT 1 3/4SM OVC003 M12/M14 A3005 RMK AO1 SLP239
SPECI CYNL 070649Z AUTO 29007KT 2SM OVC003 M12/M14 A3005 RMK AO1 SLP239
SPECI CYNL 070648Z AUTO 29006KT 3SM OVC003 M12/M14 A3005 RMK AO1 SLP239
SPECI CYNL 070645Z AUTO 30004KT 6SM OVC002 M12/M14 A3005 RMK AO1 SLP240
SPECI CYNL 070644Z AUTO 30005KT 5SM OVC003 M12/M14 A3005 RMK AO1 SLP240
SPECI CYNL 070641Z AUTO 30005KT 2 1/2SM OVC003 M12/M14 A3005 RMK AO1 SLP240
SPECI CYNL 070640Z AUTO 29005KT 3SM OVC003 M12/M14 A3006 RMK AO1 SLP241
SPECI CYNL 070638Z AUTO 30006KT 2 1/2SM OVC003 M12/M14 A3006 RMK AO1 SLP241
SPECI CYNL 070632Z AUTO ///// 3SM OVC003 M12/M14 A3006 RMK AO1 SLP241
SPECI CYNL 070630Z AUTO 29007KT 2 1/2SM OVC003 M12/M14 A3006 RMK AO1 SLP241
METAR CYNL 070600Z AUTO ///// 8SM OVC003 M12/M14 A3005 RMK AO1 SLP240
SPECI CYNL 070558Z AUTO ///// 3SM OVC003 M12/M14 A3006 RMK AO1 SLP242
SPECI CYNL 070556Z AUTO 29008KT 2 1/2SM OVC003 M12/M14 A3005 RMK AO1 SLP242
METAR CYNL 070500Z AUTO 29006KT 9SM OVC004 M12/M14 A3007 RMK AO1 SLP246
SPECI CYNL 070441Z AUTO 29006KT 9SM OVC004 M12/M14 A3007 RMK AO1 PRESFR SLP247
METAR CYNL 070400Z AUTO 29005KT 9SM OVC006 M13/M15 A3008 RMK AO1 PRESFR SLP250
SPECI CYNL 070333Z AUTO 28005KT 9SM FEW003 BKN007 M13/M15 A3009 RMK AO1 SLP256
SPECI CYNL 070321Z AUTO ///// 9SM FEW007 M13/M15 A3010 RMK AO1 SLP258
METAR CYNL 070300Z AUTO 27007KT 9SM CLR M13/M15 A3010 RMK AO1 SLP259
METAR CYNL 070200Z AUTO 27006KT 9SM CLR M13/M15 A3011 RMK AO1 SLP261
METAR CYNL 070100Z AUTO 26005KT 9SM FEW004 M13/M15 A3012 RMK AO1 PRESFR SLP267
SPECI CYNL 070050Z AUTO 26006KT 9SM SCT004 M13/M15 A3012 RMK AO1 SLP272
SPECI CYNL 070036Z AUTO 25005KT 9SM VV004 M13/M15 A3012 RMK AO1 SLP273
SPECI CYNL 070035Z AUTO 24005KT 9SM VV005 M13/M15 A3012 RMK AO1 SLP273
SPECI CYNL 070031Z AUTO 24005KT 9SM VV004 M13/M15 A3012 RMK AO1 SLP274
SPECI CYNL 070007Z AUTO 25005KT 9SM OVC005 M13/M15 A3013 RMK AO1 SLP278
SPECI CYNL 070002Z AUTO 25006KT 9SM OVC004 M13/M15 A3014 RMK AO1 SLP279
METAR CYNL 070000Z AUTO 25005KT 9SM VV005 M13/M15 A3014 RMK AO1 SLP279
SPECI CYNL 062358Z AUTO 25006KT 9SM VV005 M13/M15 A3014 RMK AO1 SLP281
METAR CYNL 062300Z AUTO 26006KT 9SM OVC003 M12/M14 A3016 RMK AO1 PRESFR SLP288
METAR CYNL 062200Z AUTO 28006KT 9SM OVC004 M13/M15 A3018 RMK AO1 SLP297
SPECI CYNL 062110Z AUTO 26004KT 9SM OVC003 M13/M15 A3017 RMK AO1 PRESFR SLP297
METAR CYNL 062100Z AUTO ///// 4SM OVC002 M13/M16 A3018 RMK AO1 PRESFR SLP298
SPECI CYNL 062051Z AUTO 27005KT 3SM OVC002 M13/M16 A3018 RMK AO1 SLP298
SPECI CYNL 062050Z AUTO 26005KT 2SM OVC002 M13/M16 A3017 RMK AO1 SLP298
SPECI CYNL 062049Z AUTO 26006KT 1 3/4SM OVC002 M13/M16 A3017 RMK AO1 SLP297
SPECI CYNL 062043Z AUTO 26006KT 1 1/4SM OVC002 M13/M16 A3017 RMK AO1 SLP297
SPECI CYNL 062042Z AUTO 26006KT 3/4SM OVC002 M13/M16 A3017 RMK AO1 SLP297
SPECI CYNL 062041Z AUTO 25007KT 5/8SM OVC002 M13/M16 A3017 RMK AO1 SLP297
SPECI CYNL 062040Z AUTO 25008KT 3/4SM OVC002 M13/M16 A3017 RMK AO1 SLP297
SPECI CYNL 062038Z AUTO 26006KT 1SM OVC002 M14/M16 A3017 RMK AO1 SLP298
SPECI CYNL 062036Z AUTO 26006KT 3/4SM OVC002 M14/M16 A3018 RMK AO1 SLP298
SPECI CYNL 062035Z AUTO 26006KT 5/8SM OVC002 M14/M16 A3018 RMK AO1 SLP298
SPECI CYNL 062034Z AUTO 26005KT 1SM OVC002 M14/M16 A3018 RMK AO1 SLP299
SPECI CYNL 062030Z AUTO 27005KT 1 1/2SM OVC002 M14/M16 A3018 RMK AO1 SLP301
SPECI CYNL 062027Z AUTO 26005KT 1SM OVC002 M14/M16 A3018 RMK AO1 SLP301
SPECI CYNL 062026Z AUTO 27004KT 1 1/2SM OVC002 M14/M16 A3018 RMK AO1 SLP301
SPECI CYNL 062022Z AUTO 26005KT 1 1/4SM OVC002 M14/M16 A3019 RMK AO1 SLP302
SPECI CYNL 062021Z AUTO 27005KT 1 3/4SM OVC002 M14/M16 A3019 RMK AO1 SLP303
SPECI CYNL 062020Z AUTO 27004KT 2SM OVC002 M14/M16 A3019 RMK AO1 SLP303
SPECI CYNL 062019Z AUTO 26005KT 1 3/4SM OVC002 M14/M16 A3019 RMK AO1 SLP303
SPECI CYNL 062018Z AUTO 26005KT 1 1/4SM OVC002 M14/M16 A3019 RMK AO1 SLP303
SPECI CYNL 062016Z AUTO 26006KT 2 1/2SM OVC002 M14/M16 A3019 RMK AO1 SLP304
SPECI CYNL 062009Z AUTO 27005KT 3SM OVC002 M14/M16 A3019 RMK AO1 SLP304
SPECI CYNL 062007Z AUTO 26005KT 2SM OVC002 M14/M16 A3019 RMK AO1 SLP305
METAR CYNL 062000Z AUTO 25004KT 9SM OVC002 M14/M17 A3020 RMK AO1 SLP306
SPECI CYNL 061954Z AUTO 25004KT 3SM OVC002 M14/M17 A3020 RMK AO1 PRESFR SLP306
SPECI CYNL 061953Z AUTO 25004KT 2 1/2SM OVC002 M14/M17 A3020 RMK AO1 PRESFR SLP305
SPECI CYNL 061952Z AUTO 26004KT 1 1/2SM OVC002 M14/M17 A3020 RMK AO1 PRESFR SLP306
SPECI CYNL 061951Z AUTO 26005KT 3/4SM OVC002 M14/M17 A3020 RMK AO1 PRESFR SLP306
SPECI CYNL 061950Z AUTO 26006KT 5/8SM OVC002 M14/M17 A3020 RMK AO1 PRESFR SLP306
SPECI CYNL 061947Z AUTO 25005KT 1 1/4SM OVC002 M14/M17 A3020 RMK AO1 PRESFR SLP306
SPECI CYNL 061945Z AUTO 25008KT 1 1/2SM OVC002 M14/M17 A3020 RMK AO1 PRESFR SLP306
SPECI CYNL 061943Z AUTO 25006KT 2 1/2SM OVC003 M14/M17 A3020 RMK AO1 PRESFR SLP307
SPECI CYNL 061940Z AUTO 25005KT 9SM OVC003 M15/M17 A3020 RMK AO1 PRESFR SLP307
SPECI CYNL 061939Z AUTO 25004KT 2 1/2SM OVC003 M15/M17 A3020 RMK AO1 PRESFR SLP308
SPECI CYNL 061937Z AUTO 26005KT 2 1/2SM OVC002 M15/M17 A3020 RMK AO1 PRESFR SLP308
SPECI CYNL 061932Z AUTO 25005KT 8SM OVC002 M15/M17 A3020 RMK AO1 PRESFR SLP309
METAR CYNL 061900Z AUTO 25006KT 5SM OVC003 M16/M18 A3021 RMK AO1 PRESFR SLP312
SPECI CYNL 061856Z AUTO 26006KT 3SM OVC003 M16/M19 A3021 RMK AO1 PRESFR SLP311
SPECI CYNL 061851Z AUTO 26006KT 2 1/2SM OVC003 M16/M19 A3021 RMK AO1 PRESFR SLP312
SPECI CYNL 061849Z AUTO 27006KT 3SM OVC003 M16/M19 A3022 RMK AO1 PRESFR SLP314
SPECI CYNL 061846Z AUTO 26006KT 2 1/2SM OVC003 M16/M19 A3022 RMK AO1 PRESFR SLP315
SPECI CYNL 061825Z AUTO ///// 9SM OVC004 M17/M20 A3024 RMK AO1 PRESFR SLP321
METAR CYNL 061800Z AUTO ///// 9SM OVC006 M18/M20 A3024 RMK AO1 PRESFR SLP324
SPECI CYNL 061741Z AUTO ///// 9SM BKN006 OVC010 M18/M20 A3025 RMK AO1 SLP322
SPECI CYNL 061739Z AUTO ///// 9SM SCT006 OVC010 M18/M20 A3025 RMK AO1 SLP322
SPECI CYNL 061728Z AUTO ///// 9SM BKN009 M17/M20 A3025 RMK AO1 SLP323
SPECI CYNL 061724Z AUTO ///// 9SM BKN010 M17/M20 A3025 RMK AO1 SLP324
METAR CYNL 061700Z AUTO ///// 9SM CLR M17/M20 A3026 RMK AO1 SLP328
SPECI CYNL 061631Z AUTO ///// 9SM SCT015 M18/M20 A3027 RMK AO1 SLP332
SPECI CYNL 061620Z AUTO ///// 9SM BKN015 M18/M21 A3027 RMK AO1 SLP332
SPECI CYNL 061610Z AUTO ///// 9SM SCT015 M18/M21 A3028 RMK AO1 SLP334
SPECI CYNL 061609Z AUTO ///// 9SM BKN015 M18/M21 A3028 RMK AO1 SLP334
METAR CYNL 061600Z AUTO ///// 9SM FEW015 M18/M21 A3027 RMK AO1 SLP333
METAR CYNL 061500Z AUTO 26007KT 9SM FEW022 BKN041 M18/M21 A3028 RMK AO1 PRESFR SLP339
METAR CYNL 061400Z AUTO 25005KT 9SM BKN034 OVC045 M21/M24 A3031 RMK AO1 PRESFR SLP351
METAR CYNL 061300Z AUTO 23006KT 9SM SCT045 BKN094 M24/M28 A3033 RMK AO1 PRESFR SLP363
METAR CYNL 061200Z AUTO ///// 9SM OVC052 M26/M29 A3036 RMK AO1 PRESFR SLP375
SPECI CYNL 061130Z AUTO ///// 9SM SCT003 BKN070 BKN094 M27/M30 A3037 RMK AO1 SLP383
SPECI CYNL 061127Z AUTO ///// 9SM VV004 M26/M30 A3038 RMK AO1 SLP384
SPECI CYNL 061122Z AUTO 00000KT 9SM FEW004 BKN068 OVC092 M26/M30 A3038 RMK AO1 SLP386
METAR CYNL 061100Z AUTO ///// 9SM BKN062 OVC092 M27/M30 A3039 RMK AO1 SLP388
METAR CYNL 061000Z AUTO ///// 9SM CLR M28/M31 A3038 RMK AO1 SLP385
METAR CYNL 060900Z AUTO ///// 9SM FEW098 BKN120 M28/M31 A3038 RMK AO1 SLP386
METAR CYNL 060800Z AUTO ///// 9SM BKN120 M27/M31 A3039 RMK AO1 SLP386
SPECI CYNL 060722Z AUTO ///// 5SM SCT003 OVC120 M26/M30 A3039 RMK AO1 SLP381
SPECI CYNL 060710Z AUTO ///// 4SM OVC003 M26/M29 A3039 RMK AO1 SLP382
SPECI CYNL 060702Z AUTO ///// 3SM OVC002 M25/M29 A3039 RMK AO1 SLP382
METAR CYNL 060700Z AUTO ///// 2SM OVC002 M25/M29 A3039 RMK AO1 SLP382
SPECI CYNL 060659Z AUTO ///// 2SM OVC002 M25/M29 A3039 RMK AO1 SLP382
SPECI CYNL 060657Z AUTO ///// 2SM VV003 M25/M29 A3039 RMK AO1 SLP382
SPECI CYNL 060656Z AUTO ///// 1 1/2SM VV003 M25/M29 A3039 RMK AO1 SLP383
SPECI CYNL 060654Z AUTO ///// 1SM VV003 M25/M29 A3039 RMK AO1 SLP384
SPECI CYNL 060650Z AUTO 30006KT 1SM VV002 M25/M29 A3039 RMK AO1 SLP384
SPECI CYNL 060648Z AUTO ///// 3/4SM VV002 M25/M28 A3039 RMK AO1 SLP383
SPECI CYNL 060627Z AUTO ///// 5/8SM BKN002 OVC004 M24/M27 A3038 RMK AO1 SLP378
SPECI CYNL 060625Z AUTO ///// 3/4SM BKN002 OVC004 M23/M27 A3038 RMK AO1 SLP377
SPECI CYNL 060611Z AUTO ///// 5/8SM BKN002 OVC003 M23/M27 A3037 RMK AO1 SLP373
METAR CYNL 060600Z AUTO 34003KT 3/8SM SCT002 OVC003 M23/M26 A3037 RMK AO1 SLP373
SPECI CYNL 060548Z AUTO 35004KT 1/4SM VV003 M23/M26 A3036 RMK AO1 SLP373
SPECI CYNL 060525Z AUTO ///// 1/8SM VV003 M23/M26 A3036 RMK AO1 SLP370
SPECI CYNL 060506Z AUTO ///// 1/8SM VV002 M23/M27 A3036 RMK AO1 SLP370
METAR CYNL 060500Z AUTO ///// 1/8SM VV003 M24/M27 A3035 RMK AO1 SLP369
SPECI CYNL 060459Z AUTO ///// 1/8SM VV003 M24/M27 A3035 RMK AO1 SLP371
SPECI CYNL 060447Z AUTO ///// 1/8SM VV002 M24/M27 A3035 RMK AO1 SLP372
SPECI CYNL 060443Z AUTO ///// 1/8SM VV003 M24/M28 A3035 RMK AO1 SLP372
SPECI CYNL 060438Z AUTO ///// 1/4SM VV003 M24/M28 A3035 RMK AO1 SLP372
SPECI CYNL 060437Z AUTO ///// 1/8SM VV003 M24/M28 A3035 RMK AO1 SLP372
SPECI CYNL 060420Z AUTO 35003KT 1/8SM VV002 M25/M29 A3034 RMK AO1 SLP370
METAR CYNL 060400Z AUTO ///// 1/8SM VV003 M26/M29 A3034 RMK AO1 SLP370
SPECI CYNL 060359Z AUTO ///// 1/8SM VV003 M26/M29 A3034 RMK AO1 SLP371
SPECI CYNL 060358Z AUTO ///// 1/8SM OVC002 M26/M29 A3034 RMK AO1 SLP372
SPECI CYNL 060349Z AUTO ///// 5/8SM OVC002 M26/M29 A3033 RMK AO1 PRESRR SLP371
SPECI CYNL 060347Z AUTO ///// 1 1/4SM OVC003 M26/M30 A3033 RMK AO1 PRESRR SLP371
SPECI CYNL 060344Z AUTO ///// 2 1/2SM OVC003 M26/M30 A3033 RMK AO1 PRESRR SLP371
METAR CYNL 060300Z AUTO ///// 9SM OVC003 M26/M29 A3033 RMK AO1 PRESRR SLP370
METAR CYNL 060200Z AUTO ///// 9SM OVC004 M25/M29 A3031 RMK AO1 PRESRR SLP362
METAR CYNL 060100Z AUTO ///// 6SM OVC003 M25/M29 A3028 RMK AO1 PRESRR SLP352
SPECI CYNL 060023Z AUTO ///// 3SM VV003 M27/M31 A3027 RMK AO1 PRESRR SLP351
SPECI CYNL 060022Z AUTO ///// 2SM VV003 M27/M31 A3027 RMK AO1 PRESRR SLP350
SPECI CYNL 060021Z AUTO ///// 1 3/4SM VV003 M27/M31 A3027 RMK AO1 PRESRR SLP350
SPECI CYNL 060018Z AUTO ///// 2 1/2SM VV003 M27/M31 A3026 RMK AO1 PRESRR SLP350
SPECI CYNL 060017Z AUTO ///// 2 1/2SM VV002 M27/M31 A3026 RMK AO1 PRESRR SLP349
SPECI CYNL 060014Z AUTO ///// 9SM VV002 M27/M31 A3026 RMK AO1 PRESRR SLP348
METAR CYNL 060000Z AUTO ///// 9SM FEW005 M27/M30 A3025 RMK AO1 PRESRR SLP346
SPECI CYNL 052351Z AUTO ///// 3SM FEW002 M27/M30 A3025 RMK AO1 PRESRR SLP345
SPECI CYNL 052345Z AUTO ///// 2 1/2SM FEW005 M27/M30 A3025 RMK AO1 PRESRR SLP345
SPECI CYNL 052332Z AUTO ///// 9SM FEW006 M27/M30 A3024 RMK AO1 PRESRR SLP342
METAR CYNL 052300Z AUTO ///// 9SM CLR M26/M30 A3023 RMK AO1 PRESRR SLP337
SPECI CYNL 052209Z AUTO ///// 9SM SCT006 M26/M29 A3020 RMK AO1 PRESRR SLP327
METAR CYNL 052200Z AUTO ///// 9SM VV005 M25/M29 A3020 RMK AO1 PRESRR SLP326
SPECI CYNL 052139Z AUTO 00000KT 9SM BKN006 M25/M28 A3019 RMK AO1 SLP320
SPECI CYNL 052123Z AUTO ///// 9SM SCT005 M24/M28 A3018 RMK AO1 SLP317
SPECI CYNL 052105Z AUTO 35004KT 9SM OVC005 M24/M28 A3017 RMK AO1 SLP313
SPECI CYNL 052101Z AUTO 35004KT 9SM OVC004 M24/M28 A3016 RMK AO1 SLP312
METAR CYNL 052100Z AUTO 35005KT 9SM VV005 M24/M28 A3016 RMK AO1 SLP311
SPECI CYNL 052054Z AUTO 00005KT 9SM VV005 M24/M28 A3016 RMK AO1 SLP311
SPECI CYNL 052045Z AUTO 01005KT 9SM OVC004 M24/M27 A3015 RMK AO1 SLP309
SPECI CYNL 052041Z AUTO 01005KT 9SM OVC005 M24/M27 A3015 RMK AO1 SLP309
SPECI CYNL 052039Z AUTO 01004KT 9SM OVC004 M24/M27 A3015 RMK AO1 SLP309
SPECI CYNL 052009Z AUTO 35005KT 9SM VV005 M23/M27 A3013 RMK AO1 SLP301
SPECI CYNL 052008Z AUTO 35005KT 9SM VV004 M23/M27 A3013 RMK AO1 SLP301
SPECI CYNL 052004Z AUTO 34005KT 3SM VV005 M23/M27 A3013 RMK AO1 SLP300
METAR CYNL 052000Z AUTO 34005KT 8SM SCT005 M23/M27 A3013 RMK AO1 SLP300
SPECI CYNL 051952Z AUTO 34005KT 9SM SCT004 M23/M27 A3012 RMK AO1 SLP296
SPECI CYNL 051945Z AUTO 34004KT 9SM BKN004 M23/M26 A3012 RMK AO1 SLP296
SPECI CYNL 051939Z AUTO 34003KT 9SM VV005 M23/M26 A3012 RMK AO1 SLP296
SPECI CYNL 051903Z AUTO ///// 3SM OVC003 M24/M27 A3010 RMK AO1 SLP289
METAR CYNL 051900Z AUTO ///// 2SM OVC002 M24/M27 A3010 RMK AO1 SLP288
SPECI CYNL 051859Z AUTO ///// 2SM OVC002 M24/M27 A3010 RMK AO1 SLP287
SPECI CYNL 051858Z AUTO ///// 1 1/2SM OVC002 M24/M27 A3009 RMK AO1 SLP285
SPECI CYNL 051857Z AUTO 03004KT 1 1/4SM OVC002 M24/M27 A3009 RMK AO1 SLP285
SPECI CYNL 051856Z AUTO 03004KT 1 1/2SM OVC002 M24/M27 A3009 RMK AO1 SLP285
SPECI CYNL 051854Z AUTO 04004KT 1 1/2SM OVC003 M24/M27 A3009 RMK AO1 SLP284
SPECI CYNL 051851Z AUTO 03004KT 1 1/4SM OVC003 M24/M27 A3009 RMK AO1 SLP283
SPECI CYNL 051850Z AUTO 03003KT 1 1/2SM OVC003 M24/M27 A3009 RMK AO1 SLP283
SPECI CYNL 051849Z AUTO 03003KT 2SM OVC003 M24/M27 A3009 RMK AO1 SLP283
SPECI CYNL 051843Z AUTO ///// 3SM OVC003 M24/M28 A3009 RMK AO1 SLP283
SPECI CYNL 051840Z AUTO ///// 2SM OVC003 M24/M28 A3009 RMK AO1 SLP283
SPECI CYNL 051839Z AUTO 06004KT 1 3/4SM OVC003 M24/M28 A3009 RMK AO1 SLP283
SPECI CYNL 051836Z AUTO 06005KT 1SM OVC003 M24/M28 A3009 RMK AO1 SLP283
SPECI CYNL 051834Z AUTO 06005KT 3/4SM OVC003 M24/M28 A3009 RMK AO1 SLP282
SPECI CYNL 051832Z AUTO 06005KT 1SM BKN003 OVC005 M24/M28 A3009 RMK AO1 SLP282
SPECI CYNL 051829Z AUTO 06005KT 1 1/4SM BKN003 OVC004 M24/M28 A3008 RMK AO1 SLP282
SPECI CYNL 051827Z AUTO 06004KT 2 1/2SM BKN003 OVC004 M24/M28 A3008 RMK AO1 SLP281
SPECI CYNL 051826Z AUTO 06004KT 1 3/4SM OVC003 M24/M28 A3008 RMK AO1 SLP281
SPECI CYNL 051825Z AUTO ///// 1 1/4SM OVC003 M24/M28 A RMK AO1 SLPNO
SPECI CYNL 051824Z AUTO ///// 1 3/4SM OVC003 M24/M28 A RMK AO1 SLPNO
METAR CYNL 051800Z AUTO ///// 3SM VV003 M25/M28 A3007 RMK AO1 PRESRR SLP278
SPECI CYNL 051733Z AUTO ///// 9SM VV003 M26/M29 A3006 RMK AO1 PRESRR SLP275
SPECI CYNL 051717Z AUTO ///// 3SM VV002 M27/M31 A3005 RMK AO1 PRESRR SLP274
SPECI CYNL 051715Z AUTO ///// 2SM VV002 M27/M31 A3005 RMK AO1 PRESRR SLP275
SPECI CYNL 051714Z AUTO ///// 1 1/2SM VV002 M27/M31 A3005 RMK AO1 PRESRR SLP275
SPECI CYNL 051713Z AUTO ///// 1SM VV002 M27/M31 A3005 RMK AO1 PRESRR SLP275
SPECI CYNL 051712Z AUTO ///// 3/4SM VV002 M27/M31 A3005 RMK AO1 PRESRR SLP275
SPECI CYNL 051707Z AUTO ///// 1 1/4SM VV002 M27/M31 A3005 RMK AO1 PRESRR SLP275
SPECI CYNL 051706Z AUTO ///// 1 1/2SM VV002 M27/M31 A3005 RMK AO1 PRESRR SLP275
SPECI CYNL 051704Z AUTO ///// 2 1/2SM VV002 M28/M31 A3005 RMK AO1 PRESRR SLP275
METAR CYNL 051700Z AUTO ///// 9SM VV002 M28/M32 A3005 RMK AO1 PRESRR SLP274
SPECI CYNL 051654Z AUTO ///// 5SM VV002 M28/M32 A3004 RMK AO1 SLP273
SPECI CYNL 051653Z AUTO ///// 2 1/2SM VV002 M28/M32 A3004 RMK AO1 SLP272
SPECI CYNL 051652Z AUTO ///// 1 1/2SM VV002 M28/M32 A3004 RMK AO1 SLP272
SPECI CYNL 051651Z AUTO ///// 1SM VV002 M28/M32 A3004 RMK AO1 SLP272
SPECI CYNL 051650Z AUTO ///// 3/4SM VV002 M28/M32 A3004 RMK AO1 SLP272
SPECI CYNL 051647Z AUTO ///// 5/8SM VV002 M28/M32 A3004 RMK AO1 SLP271
SPECI CYNL 051645Z AUTO ///// 1SM VV003 M28/M32 A3004 RMK AO1 SLP271
SPECI CYNL 051644Z AUTO 01003KT 1 1/2SM VV003 M28/M32 A3004 RMK AO1 SLP270
SPECI CYNL 051642Z AUTO ///// 2 1/2SM VV003 M28/M32 A3004 RMK AO1 SLP270
SPECI CYNL 051641Z AUTO ///// 1 3/4SM VV003 M28/M32 A3004 RMK AO1 SLP270
SPECI CYNL 051640Z AUTO 01003KT 2SM VV003 M28/M32 A3004 RMK AO1 SLP270
SPECI CYNL 051638Z AUTO 00003KT 1 1/2SM VV003 M28/M32 A3004 RMK AO1 SLP271
SPECI CYNL 051634Z AUTO 01003KT 1SM VV003 M28/M32 A3004 RMK AO1 SLP271
SPECI CYNL 051632Z AUTO 02003KT 3/4SM VV004 M28/M32 A3004 RMK AO1 SLP271
SPECI CYNL 051629Z AUTO 02003KT 1SM VV004 M29/M33 A3004 RMK AO1 SLP271
SPECI CYNL 051626Z AUTO 02003KT 3/4SM VV003 M29/M33 A3004 RMK AO1 SLP271
SPECI CYNL 051608Z AUTO 02003KT 1/4SM VV003 M29/M33 A3003 RMK AO1 SLP269
SPECI CYNL 051602Z AUTO 01002KT 1/4SM VV002 M29/M33 A3002 RMK AO1 SLP268
METAR CYNL 051600Z AUTO 02003KT 1/8SM VV002 M29/M33 A3002 RMK AO1 SLP268
SPECI CYNL 051539Z AUTO 00000KT 1/8SM VV002 M30/M34 A3002 RMK AO1 SLP268
SPECI CYNL 051521Z AUTO 03003KT 1/2SM VV002 M30/M34 A3001 RMK AO1 SLP265
SPECI CYNL 051513Z AUTO 03002KT 1/4SM VV003 M30/M34 A3001 RMK AO1 SLP265
METAR CYNL 051500Z AUTO 02003KT 1/4SM BKN001 M30/M34 A3000 RMK AO1 SLP262
SPECI CYNL 051428Z AUTO 04005KT 1/8SM VV002 M30/M34 A3000 RMK AO1 SLP258
SPECI CYNL 051424Z AUTO 03004KT 1/4SM VV002 M30/M34 A3000 RMK AO1 SLP257
SPECI CYNL 051414Z AUTO 03002KT 1/2SM VV003 M30/M34 A3000 RMK AO1 SLP257
SPECI CYNL 051401Z AUTO 03003KT 1/4SM VV002 M30/M34 A2999 RMK AO1 SLP255
METAR CYNL 051400Z AUTO 03003KT 1/4SM VV003 M30/M34 A2999 RMK AO1 SLP255
SPECI CYNL 051347Z AUTO 00000KT 5/8SM VV003 M30/M34 A2999 RMK AO1 SLP253
SPECI CYNL 051345Z AUTO 00000KT 3/4SM VV003 M30/M34 A2999 RMK AO1 SLP253
SPECI CYNL 051326Z AUTO 00000KT 5/8SM VV003 M30/M34 A2999 RMK AO1 SLP252
SPECI CYNL 051325Z AUTO 00000KT 3/4SM VV003 M30/M34 A2999 RMK AO1 SLP252
SPECI CYNL 051324Z AUTO 00000KT 5/8SM VV003 M30/M34 A2999 RMK AO1 SLP252
SPECI CYNL 051323Z AUTO 00000KT 3/4SM VV003 M30/M34 A2999 RMK AO1 SLP252
SPECI CYNL 051321Z AUTO 00000KT 1 3/4SM OVC003 M30/M34 A2998 RMK AO1 SLP251
SPECI CYNL 051315Z AUTO 00000KT 2SM OVC003 M30/M34 A2998 RMK AO1 SLP251
SPECI CYNL 051313Z AUTO 09002KT 1 1/2SM VV004 M30/M34 A2998 RMK AO1 SLP251
SPECI CYNL 051312Z AUTO 09003KT 1 1/4SM VV004 M30/M34 A2998 RMK AO1 SLP251
SPECI CYNL 051311Z AUTO 08003KT 1 1/2SM VV004 M30/M34 A2998 RMK AO1 SLP250
SPECI CYNL 051304Z AUTO 06003KT 2 1/2SM VV004 M30/M34 A2998 RMK AO1 SLP249
METAR CYNL 051300Z AUTO ///// 4SM VV003 M30/M34 A2998 RMK AO1 SLP248
SPECI CYNL 051243Z AUTO ///// 6SM OVC003 M30/M34 A2996 RMK AO1 SLP244
SPECI CYNL 051241Z AUTO ///// 2SM OVC003 M30/M34 A2996 RMK AO1 SLP244
SPECI CYNL 051240Z AUTO ///// 1 3/4SM OVC003 M30/M34 A2996 RMK AO1 SLP244
SPECI CYNL 051238Z AUTO ///// 2 1/2SM OVC003 M30/M34 A2996 RMK AO1 SLP244
SPECI CYNL 051232Z AUTO ///// 3SM OVC003 M30/M34 A2996 RMK AO1 SLP243
SPECI CYNL 051228Z AUTO ///// 2 1/2SM OVC003 M30/M34 A2996 RMK AO1 SLP244
SPECI CYNL 051227Z AUTO ///// 3SM OVC003 M30/M34 A2996 RMK AO1 SLP244
SPECI CYNL 051225Z AUTO ///// 2 1/2SM BKN003 OVC005 M30/M34 A2996 RMK AO1 SLP244
SPECI CYNL 051224Z AUTO ///// 3SM BKN003 OVC005 M30/M34 A2996 RMK AO1 SLP244
SPECI CYNL 051223Z AUTO ///// 2 1/2SM BKN003 OVC005 M30/M34 A2996 RMK AO1 SLP244
SPECI CYNL 051217Z AUTO ///// 3SM BKN003 OVC005 M30/M34 A2997 RMK AO1 SLP245
SPECI CYNL 051216Z AUTO ///// 2 1/2SM BKN003 OVC005 M30/M34 A2997 RMK AO1 SLP245
SPECI CYNL 051215Z AUTO ///// 3SM BKN003 OVC005 M30/M34 A2997 RMK AO1 SLP245
SPECI CYNL 051211Z AUTO ///// 2SM BKN003 OVC005 M30/M34 A2997 RMK AO1 SLP246
SPECI CYNL 051209Z AUTO ///// 2 1/2SM SCT003 OVC005 M30/M34 A2997 RMK AO1 SLP246
SPECI CYNL 051207Z AUTO ///// 3SM SCT003 OVC005 M30/M34 A2997 RMK AO1 SLP246
SPECI CYNL 051206Z AUTO ///// 2 1/2SM SCT003 OVC005 M30/M34 A2997 RMK AO1 SLP246
SPECI CYNL 051201Z AUTO ///// 2SM VV004 M30/M34 A2997 RMK AO1 SLP247
METAR CYNL 051200Z AUTO ///// 1 3/4SM VV004 M30/M34 A2997 RMK AO1 SLP247
SPECI CYNL 051159Z AUTO ///// 1 1/2SM VV004 M30/M34 A2997 RMK AO1 SLP246
SPECI CYNL 051158Z AUTO ///// 1 1/4SM VV004 M30/M34 A2997 RMK AO1 SLP246
SPECI CYNL 051156Z AUTO ///// 1 3/4SM VV004 M30/M34 A2997 RMK AO1 SLP246
SPECI CYNL 051154Z AUTO ///// 2 1/2SM VV004 M30/M34 A2997 RMK AO1 SLP246
SPECI CYNL 051148Z AUTO ///// 5SM VV004 M30/M34 A2997 RMK AO1 SLP245
SPECI CYNL 051146Z AUTO ///// 4SM VV005 M30/M34 A2997 RMK AO1 SLP245
SPECI CYNL 051144Z AUTO ///// 3SM VV004 M30/M34 A2997 RMK AO1 SLP245
SPECI CYNL 051136Z AUTO ///// 2 1/2SM VV003 M30/M34 A2997 RMK AO1 SLP245
SPECI CYNL 051131Z AUTO ///// 6SM VV003 M30/M34 A2997 RMK AO1 SLP245
SPECI CYNL 051110Z AUTO ///// 6SM VV002 M31/M35 A2997 RMK AO1 SLP244
SPECI CYNL 051108Z AUTO ///// 3SM VV003 M31/M35 A2997 RMK AO1 SLP244
SPECI CYNL 051105Z AUTO ///// 2SM VV003 M30/M35 A2997 RMK AO1 SLP245
SPECI CYNL 051102Z AUTO ///// 1 1/2SM VV003 M30/M35 A2997 RMK AO1 SLP245
METAR CYNL 051100Z AUTO 06004KT 1 1/4SM VV003 M30/M34 A2997 RMK AO1 SLP245
SPECI CYNL 051057Z AUTO 06004KT 1 1/4SM VV002 M30/M34 A2997 RMK AO1 SLP243
SPECI CYNL 051051Z AUTO ///// 1 1/2SM VV002 M30/M35 A2997 RMK AO1 SLP243
SPECI CYNL 051050Z AUTO ///// 1 1/4SM VV002 M30/M34 A2997 RMK AO1 SLP243
SPECI CYNL 051045Z AUTO ///// 1 1/2SM VV002 M30/M34 A2997 RMK AO1 SLP244
SPECI CYNL 051035Z AUTO ///// 1SM BKN001 M30/M34 A2998 RMK AO1 SLP246
SPECI CYNL 051032Z AUTO 05005KT 3/4SM BKN001 M30/M34 A2998 RMK AO1 SLP246
SPECI CYNL 051014Z AUTO 06002KT 5/8SM VV002 M30/M34 A2998 RMK AO1 SLP246
SPECI CYNL 051013Z AUTO 06002KT 1SM VV002 M30/M34 A2998 RMK AO1 SLP246
SPECI CYNL 051012Z AUTO 06003KT 1 1/2SM VV002 M30/M34 A2998 RMK AO1 SLP246
SPECI CYNL 051009Z AUTO 00000KT 4SM VV002 M30/M34 A2998 RMK AO1 SLP247
METAR CYNL 051000Z AUTO 05004KT 9SM OVC004 M30/M34 A2998 RMK AO1 SLP247
SPECI CYNL 050958Z AUTO 06005KT 4SM OVC004 M30/M34 A2998 RMK AO1 SLP244
SPECI CYNL 050956Z AUTO 05005KT 2SM VV004 M30/M34 A2998 RMK AO1 SLP245
SPECI CYNL 050953Z AUTO 06004KT 1 1/2SM VV004 M31/M35 A2998 RMK AO1 SLP246
SPECI CYNL 050952Z AUTO 06004KT 1 1/4SM VV004 M31/M35 A2998 RMK AO1 SLP246
SPECI CYNL 050950Z AUTO 06005KT 1SM VV005 M31/M35 A2998 RMK AO1 SLP246
SPECI CYNL 050949Z AUTO 06005KT 3/4SM VV005 M31/M35 A2998 RMK AO1 SLP246
SPECI CYNL 050944Z AUTO ///// 3/8SM VV005 M31/M35 A2998 RMK AO1 SLP246
SPECI CYNL 050933Z AUTO 00000KT 5/8SM VV004 M31/M35 A2998 RMK AO1 SLP247
SPECI CYNL 050932Z AUTO 00000KT 3/4SM VV004 M31/M35 A2999 RMK AO1 SLP247
SPECI CYNL 050921Z AUTO 00000KT 5/8SM VV004 M31/M35 A2999 RMK AO1 SLP248
SPECI CYNL 050920Z AUTO 00000KT 1SM VV004 M31/M35 A2999 RMK AO1 SLP248
SPECI CYNL 050919Z AUTO 00000KT 1 1/2SM VV004 M31/M35 A2999 RMK AO1 SLP248
SPECI CYNL 050918Z AUTO 00000KT 2SM VV004 M31/M35 A2999 RMK AO1 SLP248
SPECI CYNL 050917Z AUTO 00000KT 1 3/4SM VV004 M31/M35 A2999 RMK AO1 SLP248
SPECI CYNL 050916Z AUTO 00000KT 1 1/4SM VV004 M31/M35 A2999 RMK AO1 SLP248
SPECI CYNL 050915Z AUTO 00000KT 3/4SM VV004 M31/M35 A2999 RMK AO1 SLP248
SPECI CYNL 050913Z AUTO ///// 5/8SM VV004 M31/M35 A2999 RMK AO1 SLP248
SPECI CYNL 050911Z AUTO ///// 1 1/4SM VV003 M31/M35 A2999 RMK AO1 SLP248
SPECI CYNL 050908Z AUTO 00000KT 2SM VV003 M31/M35 A2999 RMK AO1 SLP248
SPECI CYNL 050905Z AUTO 00000KT 6SM VV003 M31/M35 A2999 RMK AO1 SLP247
SPECI CYNL 050904Z AUTO 00000KT 5SM VV002 M31/M35 A2998 RMK AO1 SLP247
SPECI CYNL 050903Z AUTO 00000KT 2 1/2SM VV002 M31/M35 A2998 RMK AO1 SLP247
METAR CYNL 050900Z AUTO 00000KT 1 3/4SM VV002 M31/M35 A2998 RMK AO1 SLP247
SPECI CYNL 050859Z AUTO 00000KT 2 1/2SM VV002 M31/M35 A2998 RMK AO1 SLP246
SPECI CYNL 050851Z AUTO 04003KT 9SM VV002 M31/M35 A2998 RMK AO1 SLP243
METAR CYNL 050800Z AUTO 00000KT 9SM VV004 M30/M34 A2999 RMK AO1 SLP244
SPECI CYNL 050748Z AUTO 00000KT 9SM VV003 M30/M34 A2999 RMK AO1 SLP245
METAR CYNL 050700Z AUTO 02002KT 9SM VV002 M28/M32 A2999 RMK AO1 SLP243
SPECI CYNL 050647Z AUTO ///// 3SM BKN001 M28/M32 A2999 RMK AO1 SLP242
SPECI CYNL 050645Z AUTO ///// 2SM BKN001 M28/M32 A2999 RMK AO1 SLP241
SPECI CYNL 050643Z AUTO ///// 1 1/2SM BKN001 M28/M32 A2998 RMK AO1 SLP240
SPECI CYNL 050635Z AUTO ///// 1SM VV001 M28/M32 A2998 RMK AO1 SLP240
SPECI CYNL 050634Z AUTO ///// 3/4SM VV001 M28/M32 A2999 RMK AO1 SLP241
SPECI CYNL 050629Z AUTO ///// 5/8SM VV001 M29/M32 A2999 RMK AO1 SLP241
SPECI CYNL 050627Z AUTO ///// 1 3/4SM VV001 M29/M32 A2999 RMK AO1 SLP241
SPECI CYNL 050618Z AUTO ///// 9SM VV002 M29/M32 A2999 RMK AO1 SLP243
SPECI CYNL 050605Z AUTO ///// 9SM VV003 M29/M32 A2999 RMK AO1 SLP244
SPECI CYNL 050603Z AUTO 02004KT 9SM VV002 M29/M32 A2999 RMK AO1 SLP244
METAR CYNL 050600Z AUTO 02004KT 9SM VV003 M29/M32 A3000 RMK AO1 SLP245
SPECI CYNL 050512Z AUTO ///// 9SM VV003 M28/M32 A3001 RMK AO1 PRESFR SLP249
METAR CYNL 050500Z AUTO ///// 9SM VV002 M28/M31 A3001 RMK AO1 PRESFR SLP248
SPECI CYNL 050456Z AUTO ///// 9SM VV002 M28/M31 A3001 RMK AO1 SLP249
SPECI CYNL 050404Z AUTO 00000KT 9SM BKN004 M28/M32 A3004 RMK AO1 SLP260
SPECI CYNL 050403Z AUTO 00000KT 9SM SCT004 M28/M32 A3004 RMK AO1 SLP260
METAR CYNL 050400Z AUTO 00000KT 9SM VV004 M28/M32 A3004 RMK AO1 SLP260
SPECI CYNL 050357Z AUTO 30003KT 9SM VV004 M28/M32 A3004 RMK AO1 SLP260
SPECI CYNL 050352Z AUTO 27003KT 9SM FEW004 M28/M32 A3004 RMK AO1 SLP261
METAR CYNL 050300Z AUTO 31002KT 9SM CLR M27/M31 A3004 RMK AO1 SLP259
METAR CYNL 050200Z AUTO 03003KT 9SM CLR M26/M29 A3005 RMK AO1 PRESFR SLP259
METAR CYNL 050100Z AUTO 33006KT 9SM CLR M25/M28 A3007 RMK AO1 SLP266
METAR CYNL 050000Z AUTO ///// 9SM CLR M24/M28 A3007 RMK AO1 SLP264
METAR CYNL 042300Z AUTO 30004KT 9SM CLR M23/M26 A3008 RMK AO1 SLP263
METAR CYNL 042200Z AUTO 33003KT 9SM CLR M22/M25 A3006 RMK AO1 SLP256
METAR CYNL 042100Z AUTO 32004KT 9SM CLR M19/M23 A3005 RMK AO1 SLP248
METAR CYNL 042000Z AUTO 33006KT 9SM CLR M19/M23 A3004 RMK AO1 SLP243
METAR CYNL 041900Z AUTO 32009KT 9SM CLR M19/M22 A3003 RMK AO1 SLP239
SPECI CYNL 041842Z AUTO 31009KT 9SM FEW003 M19/M22 A3003 RMK AO1 SLP237
METAR CYNL 041800Z AUTO 32009KT 9SM FEW047 M20/M23 A3002 RMK AO1 SLP235
METAR CYNL 041700Z AUTO 33007KT 9SM CLR M20/M23 A3001 RMK AO1 SLP230
METAR CYNL 041600Z AUTO 32008KT 9SM BKN062 M20/M22 A3000 RMK AO1 PRESRR SLP226
METAR CYNL 041500Z AUTO 33007KT 9SM FEW037 M20/M22 A2997 RMK AO1 SLP214
METAR CYNL 041400Z AUTO 32009KT 9SM FEW047 M18/M21 A2995 RMK AO1 SLP203
METAR CYNL 041300Z AUTO 31007KT 9SM FEW003 SCT050 M18/M21 A2993 RMK AO1 PRESRR SLP197
SPECI CYNL 041231Z AUTO 31006KT 7SM FEW003 M18/M20 A2992 RMK AO1 PRESRR SLP192
METAR CYNL 041200Z AUTO 31008KT 9SM CLR M17/M20 A2990 RMK AO1 PRESRR SLP186
SPECI CYNL 041114Z AUTO 32009KT 9SM SCT006 M17/M20 A2989 RMK AO1 SLP180
SPECI CYNL 041113Z AUTO 32008KT 8SM BKN006 M17/M20 A2989 RMK AO1 SLP180
SPECI CYNL 041104Z AUTO 31008KT 9SM SCT006 M17/M20 A2989 RMK AO1 SLP179
METAR CYNL 041100Z AUTO 31007KT 9SM BKN006 M17/M20 A2988 RMK AO1 SLP178
SPECI CYNL 041022Z AUTO 30008G15KT 3SM VV009 M17/M19 A2987 RMK AO1 PRESRR SLP174
SPECI CYNL 041011Z AUTO 31007KT 3SM VV011 M17/M19 A2987 RMK AO1 PRESRR SLP172
SPECI CYNL 041008Z AUTO ///// 2 1/2SM VV011 M17/M19 A2987 RMK AO1 PRESRR SLP171
SPECI CYNL 041002Z AUTO ///// 3SM VV012 M17/M19 A2987 RMK AO1 PRESRR SLP171
METAR CYNL 041000Z AUTO 30009KT 2 1/2SM VV012 M17/M19 A2987 RMK AO1 PRESRR SLP171
SPECI CYNL 040939Z AUTO 30009KT 2 1/2SM VV013 M17/M19 A2986 RMK AO1 SLP168
SPECI CYNL 040935Z AUTO 30007KT 5SM VV014 M17/M19 A2986 RMK AO1 SLP168
SPECI CYNL 040925Z AUTO 30008KT 9SM VV015 M16/M19 A2985 RMK AO1 SLP166
SPECI CYNL 040923Z AUTO 30007KT 9SM VV014 M16/M19 A2985 RMK AO1 SLP166
SPECI CYNL 040912Z AUTO 30008KT 9SM FEW006 SCT009 M16/M19 A2985 RMK AO1 SLP165
SPECI CYNL 040905Z AUTO 29007KT 7SM FEW006 SCT009 BKN015 M16/M19 A2985 RMK AO1 SLP164
METAR CYNL 040900Z AUTO 30008KT 5SM VV007 M16/M19 A2985 RMK AO1 SLP164
SPECI CYNL 040858Z AUTO 30007KT 4SM VV009 M16/M19 A2984 RMK AO1 SLP163
SPECI CYNL 040853Z AUTO 31009KT 3SM VV013 M16/M19 A2984 RMK AO1 SLP162
SPECI CYNL 040850Z AUTO ///// 2 1/2SM VV011 M16/M19 A2984 RMK AO1 SLP161
SPECI CYNL 040848Z AUTO 30008KT 3SM VV010 M16/M19 A2984 RMK AO1 SLP161
SPECI CYNL 040843Z AUTO 30009KT 2 1/2SM VV014 M16/M19 A2984 RMK AO1 SLP161
SPECI CYNL 040807Z AUTO 30007KT 2SM VV015 M16/M19 A2983 RMK AO1 SLP158
METAR CYNL 040800Z AUTO 30009KT 1 1/2SM VV015 M16/M18 A2983 RMK AO1 SLP156
SPECI CYNL 040753Z AUTO 29005KT 1 1/2SM VV015 M16/M18 A2983 RMK AO1 PRESRR SLP156
SPECI CYNL 040746Z AUTO ///// 1SM VV015 M16/M18 A2983 RMK AO1 PRESRR SLP156
SPECI CYNL 040727Z AUTO ///// 1SM VV014 M15/M18 A2982 RMK AO1 PRESRR SLP154
SPECI CYNL 040722Z AUTO ///// 1 1/4SM VV016 M15/M18 A2982 RMK AO1 PRESRR SLP154
METAR CYNL 040700Z AUTO ///// 1 1/2SM VV021 M15/M18 A2981 RMK AO1 PRESRR SLP151
SPECI CYNL 040656Z AUTO ///// 1 1/2SM VV021 M15/M18 A2981 RMK AO1 SLP151
SPECI CYNL 040651Z AUTO ///// 1 1/4SM VV021 M15/M18 A2981 RMK AO1 SLP150
SPECI CYNL 040640Z AUTO ///// 1 3/4SM VV022 M15/M17 A2981 RMK AO1 SLP148
SPECI CYNL 040632Z AUTO ///// 2 1/2SM VV024 M15/M17 A2980 RMK AO1 SLP146
SPECI CYNL 040629Z AUTO ///// 3SM VV024 M15/M17 A2980 RMK AO1 SLP146
SPECI CYNL 040608Z AUTO ///// 9SM FEW021 OVC028 M14/M17 A2979 RMK AO1 SLP142
SPECI CYNL 040602Z AUTO ///// 9SM VV030 M14/M17 A2979 RMK AO1 SLP141
METAR CYNL 040600Z AUTO ///// 9SM VV029 M14/M17 A2979 RMK AO1 SLP141
SPECI CYNL 040544Z AUTO ///// 8SM VV025 M14/M16 A2978 RMK AO1 SLP139
SPECI CYNL 040529Z AUTO ///// 3SM VV015 M14/M16 A2978 RMK AO1 SLP138
SPECI CYNL 040518Z AUTO ///// 2SM VV010 M14/M16 A2978 RMK AO1 SLP137
SPECI CYNL 040504Z AUTO ///// 1 3/4SM VV012 M14/M16 A2977 RMK AO1 SLP135
METAR CYNL 040500Z AUTO ///// 2SM VV011 M14/M16 A2977 RMK AO1 SLP135
SPECI CYNL 040458Z AUTO ///// 2SM VV010 M13/M16 A2977 RMK AO1 SLP135
SPECI CYNL 040457Z AUTO ///// 2SM VV009 M13/M16 A2977 RMK AO1 PRESRR SLP135
SPECI CYNL 040454Z AUTO ///// 1 1/2SM VV008 M13/M16 A2977 RMK AO1 PRESRR SLP135
SPECI CYNL 040436Z AUTO ///// 1 1/4SM VV006 M13/M15 A2977 RMK AO1 PRESRR SLP132
SPECI CYNL 040430Z AUTO ///// 1 3/4SM VV007 M13/M15 A2976 RMK AO1 PRESRR SLP131
SPECI CYNL 040428Z AUTO ///// 2 1/2SM VV007 M13/M15 A2976 RMK AO1 PRESRR SLP131
SPECI CYNL 040423Z AUTO ///// 5SM VV009 M13/M15 A2976 RMK AO1 PRESRR SLP131
SPECI CYNL 040416Z AUTO ///// 9SM VV014 M13/M15 A2976 RMK AO1 PRESRR SLP131
SPECI CYNL 040406Z AUTO ///// 9SM VV024 M12/M15 A2976 RMK AO1 PRESRR SLP129
METAR CYNL 040400Z AUTO ///// 9SM VV025 M12/M14 A2976 RMK AO1 PRESRR SLP129
SPECI CYNL 040343Z AUTO ///// 3SM VV019 M11/M14 A2975 RMK AO1 SLP126
SPECI CYNL 040336Z AUTO ///// 2SM VV023 M11/M13 A2975 RMK AO1 SLP125
SPECI CYNL 040326Z AUTO ///// 1 1/2SM VV015 M11/M13 A2975 RMK AO1 SLP124
SPECI CYNL 040309Z AUTO ///// 1 1/2SM VV011 M11/M13 A2974 RMK AO1 SLP121
SPECI CYNL 040305Z AUTO ///// 1 1/4SM VV012 M11/M12 A2974 RMK AO1 SLP120
METAR CYNL 040300Z AUTO 31006KT 1 1/2SM VV013 M10/M12 A2974 RMK AO1 SLP120
SPECI CYNL 040256Z AUTO ///// 1 3/4SM VV014 M10/M12 A2974 RMK AO1 SLP120
SPECI CYNL 040253Z AUTO ///// 1 3/4SM VV016 M10/M12 A2974 RMK AO1 SLP119
SPECI CYNL 040252Z AUTO 31006KT 2SM VV017 M10/M12 A2974 RMK AO1 SLP119
SPECI CYNL 040251Z AUTO 31006KT 1 3/4SM VV017 M10/M12 A2974 RMK AO1 SLP119
SPECI CYNL 040238Z AUTO 32004KT 2SM VV024 M10/M12 A2973 RMK AO1 SLP118
SPECI CYNL 040236Z AUTO 32005KT 2 1/2SM VV025 M10/M12 A2973 RMK AO1 SLP118
SPECI CYNL 040226Z AUTO 32004KT 8SM VV025 M10/M12 A2973 RMK AO1 SLP118
SPECI CYNL 040212Z AUTO 33005KT 3SM VV016 M10/M12 A2973 RMK AO1 SLP117
SPECI CYNL 040211Z AUTO 33006KT 2 1/2SM VV015 M10/M12 A2973 RMK AO1 SLP117
SPECI CYNL 040209Z AUTO 33005KT 2SM VV013 M10/M12 A2973 RMK AO1 SLP116
METAR CYNL 040200Z AUTO 32006KT 1 3/4SM VV013 M10/M11 A2973 RMK AO1 SLP116
SPECI CYNL 040149Z AUTO 33006KT 1 3/4SM VV014 M09/M11 A2973 RMK AO1 SLP114
SPECI CYNL 040143Z AUTO 32004KT 1 3/4SM VV019 M09/M11 A2973 RMK AO1 SLP114
SPECI CYNL 040142Z AUTO 32004KT 2 1/2SM VV020 M09/M11 A2973 RMK AO1 SLP114
SPECI CYNL 040139Z AUTO 32003KT 7SM VV023 M09/M11 A2973 RMK AO1 SLP114
SPECI CYNL 040126Z AUTO 32003KT 4SM VV025 M09/M11 A2973 RMK AO1 SLP114
SPECI CYNL 040124Z AUTO 32003KT 3SM VV022 M09/M11 A2973 RMK AO1 SLP114
SPECI CYNL 040122Z AUTO 32003KT 2SM VV020 M09/M11 A2973 RMK AO1 SLP114
SPECI CYNL 040109Z AUTO 34002KT 1 1/2SM VV015 M09/M11 A2972 RMK AO1 SLP113
METAR CYNL 040100Z AUTO 00000KT 1 3/4SM VV014 M09/M11 A2972 RMK AO1 SLP113
SPECI CYNL 040059Z AUTO 00000KT 1 3/4SM VV014 M09/M11 A2972 RMK AO1 SLP113
SPECI CYNL 040058Z AUTO 00000KT 1 3/4SM VV015 M09/M11 A2972 RMK AO1 SLP112
SPECI CYNL 040056Z AUTO 00000KT 2SM VV015 M09/M11 A2972 RMK AO1 SLP112
SPECI CYNL 040050Z AUTO 00000KT 1 3/4SM VV017 M09/M11 A2972 RMK AO1 SLP112
SPECI CYNL 040039Z AUTO 00000KT 2SM VV024 M09/M11 A2972 RMK AO1 SLP112
SPECI CYNL 040037Z AUTO 00000KT 2 1/2SM VV025 M09/M11 A2972 RMK AO1 SLP112
SPECI CYNL 040033Z AUTO 00000KT 3SM VV026 M09/M11 A2972 RMK AO1 SLP112
SPECI CYNL 040027Z AUTO 00000KT 2SM VV025 M09/M10 A2972 RMK AO1 SLP111
SPECI CYNL 040021Z AUTO 00000KT 2SM VV020 M09/M10 A2972 RMK AO1 SLP110
SPECI CYNL 040005Z AUTO 20002KT 1 3/4SM VV018 M09/M10 A2971 RMK AO1 SLP108
SPECI CYNL 040004Z AUTO 20002KT 2SM VV018 M09/M10 A2971 RMK AO1 SLP108
SPECI CYNL 040002Z AUTO 00000KT 1 3/4SM VV018 M09/M10 A2971 RMK AO1 SLP108
METAR CYNL 040000Z AUTO 00000KT 2SM VV018 M09/M10 A2971 RMK AO1 SLP108
SPECI CYNL 032357Z AUTO 00000KT 2SM VV018 M09/M10 A2971 RMK AO1 SLP108
SPECI CYNL 032349Z AUTO 00000KT 1 1/2SM VV017 M09/M10 A2971 RMK AO1 SLP108
SPECI CYNL 032346Z AUTO 00000KT 1 1/4SM VV015 M09/M10 A2971 RMK AO1 SLP107
SPECI CYNL 032337Z AUTO 00000KT 1 1/4SM FEW002 BKN014 OVC017 M09/M10 A2971 RMK AO1 SLP108
SPECI CYNL 032336Z AUTO 19002KT 1 1/4SM FEW002 OVC015 M09/M10 A2971 RMK AO1 SLP108
SPECI CYNL 032333Z AUTO 18003KT 1 1/4SM VV017 M09/M10 A2971 RMK AO1 SLP108
SPECI CYNL 032332Z AUTO 18003KT 1 1/2SM VV017 M09/M10 A2971 RMK AO1 SLP108
SPECI CYNL 032327Z AUTO 17003KT 1SM VV015 M09/M10 A2971 RMK AO1 SLP108
SPECI CYNL 032312Z AUTO 17003KT 1 1/4SM VV014 M09/M10 A2971 RMK AO1 SLP108
SPECI CYNL 032308Z AUTO 17002KT 1 3/4SM VV017 M09/M10 A2971 RMK AO1 SLP108
SPECI CYNL 032301Z AUTO 17002KT 2SM VV019 M08/M10 A2971 RMK AO1 SLP108
METAR CYNL 032300Z AUTO 17003KT 1 3/4SM VV019 M08/M10 A2971 RMK AO1 SLP108
SPECI CYNL 032253Z AUTO 15002KT 1 3/4SM VV016 M08/M10 A2971 RMK AO1 SLP107
SPECI CYNL 032252Z AUTO 15002KT 2SM VV016 M08/M10 A2971 RMK AO1 SLP108
SPECI CYNL 032247Z AUTO 00000KT 1 3/4SM VV015 M09/M10 A2971 RMK AO1 SLP107
SPECI CYNL 032245Z AUTO 00000KT 2SM VV015 M09/M10 A2971 RMK AO1 SLP107
SPECI CYNL 032244Z AUTO 00000KT 2SM VV014 M09/M10 A2971 RMK AO1 SLP107
SPECI CYNL 032242Z AUTO 00000KT 1 3/4SM VV014 M09/M10 A2971 RMK AO1 SLP107
SPECI CYNL 032241Z AUTO 00000KT 1 3/4SM VV015 M09/M10 A2971 RMK AO1 SLP107
SPECI CYNL 032238Z AUTO 00000KT 2 1/2SM VV018 M09/M10 A2971 RMK AO1 SLP107
SPECI CYNL 032236Z AUTO 00000KT 5SM VV024 M09/M10 A2971 RMK AO1 SLP107
SPECI CYNL 032234Z AUTO 00000KT 5SM VV028 M09/M10 A2971 RMK AO1 SLP107
SPECI CYNL 032220Z AUTO 18003KT 3SM VV033 M09/M10 A2971 RMK AO1 SLP107
SPECI CYNL 032219Z AUTO 18003KT 3SM VV029 M09/M10 A2971 RMK AO1 SLP107
SPECI CYNL 032218Z AUTO 18003KT 2 1/2SM VV026 M09/M10 A2971 RMK AO1 SLP107
SPECI CYNL 032206Z AUTO 00000KT 2 1/2SM VV021 M09/M10 A2971 RMK AO1 SLP106
SPECI CYNL 032203Z AUTO 19002KT 7SM VV022 M09/M10 A2970 RMK AO1 SLP106
METAR CYNL 032200Z AUTO 00000KT 6SM FEW004 BKN027 OVC034 M09/M10 A2970 RMK AO1 SLP105
SPECI CYNL 032154Z AUTO 00000KT 8SM FEW004 BKN027 OVC034 M09/M10 A2970 RMK AO1 SLP105
SPECI CYNL 032152Z AUTO 18002KT 9SM VV029 M09/M10 A2970 RMK AO1 SLP104
SPECI CYNL 032145Z AUTO 18002KT 6SM VV030 M08/M10 A2970 RMK AO1 SLP103
SPECI CYNL 032143Z AUTO 18003KT 3SM VV027 M08/M10 A2970 RMK AO1 SLP103
SPECI CYNL 032142Z AUTO 18002KT 2SM VV027 M08/M10 A2970 RMK AO1 SLP103
SPECI CYNL 032137Z AUTO 17003KT 1 3/4SM VV027 M08/M10 A2970 RMK AO1 SLP103
SPECI CYNL 032135Z AUTO 18003KT 2 1/2SM VV027 M08/M10 A2970 RMK AO1 SLP103
SPECI CYNL 032130Z AUTO 20002KT 4SM VV028 M08/M10 A2969 RMK AO1 SLP102
SPECI CYNL 032124Z AUTO 00000KT 9SM VV032 M08/M10 A2969 RMK AO1 SLP102
SPECI CYNL 032122Z AUTO 00000KT 8SM VV026 M08/M10 A2969 RMK AO1 SLP102
SPECI CYNL 032120Z AUTO 00000KT 6SM VV018 M08/M10 A2969 RMK AO1 SLP102
SPECI CYNL 032107Z AUTO 00000KT 4SM SCT009 OVC012 M08/M10 A2970 RMK AO1 SLP102
SPECI CYNL 032104Z AUTO 23002KT 3SM BKN009 OVC012 M08/M10 A2970 RMK AO1 SLP102
SPECI CYNL 032103Z AUTO 24002KT 2 1/2SM BKN009 OVC012 M08/M10 A2970 RMK AO1 SLP102
METAR CYNL 032100Z AUTO 23003KT 3SM BKN009 OVC012 M08/M10 A2970 RMK AO1 SLP103
SPECI CYNL 032035Z AUTO 00000KT 5SM FEW006 BKN009 M08/M10 A2969 RMK AO1 SLP102
SPECI CYNL 032029Z AUTO 18003KT 5SM FEW007 BKN010 M08/M10 A2969 RMK AO1 SLP102
SPECI CYNL 032023Z AUTO 18003KT 5SM FEW005 SCT011 M08/M10 A2970 RMK AO1 SLP102
SPECI CYNL 032001Z AUTO 19003KT 9SM SCT016 M08/M10 A2970 RMK AO1 SLP103
METAR CYNL 032000Z AUTO 18003KT 9SM BKN016 M08/M10 A2970 RMK AO1 SLP103
METAR CYNL 031900Z AUTO 17004KT 9SM FEW009 OVC016 M08/M10 A2970 RMK AO1 SLP105
SPECI CYNL 031846Z AUTO 20003KT 9SM FEW009 OVC016 M08/M10 A2971 RMK AO1 SLP106
SPECI CYNL 031826Z AUTO 21003KT 180V240 9SM FEW011 OVC015 M08/M10 A2971 RMK AO1 SLP109
SPECI CYNL 031825Z AUTO 21004KT 180V250 9SM OVC014 M08/M10 A2971 RMK AO1 SLP109
SPECI CYNL 031824Z AUTO 19003KT 9SM FEW011 OVC015 M08/M10 A2971 RMK AO1 SLP109
METAR CYNL 031800Z AUTO 23003KT 9SM FEW009 OVC014 M08/M10 A2971 RMK AO1 SLP109
SPECI CYNL 031746Z AUTO 00000KT 9SM SCT009 OVC012 M08/M10 A2971 RMK AO1 SLP109
METAR CYNL 031700Z AUTO 22008KT 9SM OVC007 M08/M10 A2971 RMK AO1 SLP110
METAR CYNL 031600Z AUTO 25004KT 9SM OVC007 M09/M10 A2971 RMK AO1 SLP109
SPECI CYNL 031502Z AUTO 25006KT 9SM OVC009 M09/M10 A2970 RMK AO1 SLP106
METAR CYNL 031500Z AUTO 24005KT 9SM OVC010 M09/M10 A2970 RMK AO1 SLP106
SPECI CYNL 031423Z AUTO 25005KT 9SM SCT008 OVC011 M09/M10 A2970 RMK AO1 SLP105
METAR CYNL 031400Z AUTO 25004KT 9SM OVC008 M09/M10 A2970 RMK AO1 SLP105
METAR CYNL 031300Z AUTO 25003KT 9SM OVC009 M09/M10 A2970 RMK AO1 SLP104
SPECI CYNL 031244Z AUTO 26004KT 9SM BKN009 OVC036 M09/M10 A2970 RMK AO1 SLP104
SPECI CYNL 031243Z AUTO 27004KT 9SM FEW008 SCT010 BKN013 M09/M10 A2970 RMK AO1 SLP104
SPECI CYNL 031234Z AUTO 26003KT 9SM FEW010 BKN013 OVC036 M09/M10 A2970 RMK AO1 SLP105
SPECI CYNL 031229Z AUTO 26005KT 9SM SCT013 OVC036 M09/M10 A2970 RMK AO1 SLP105
SPECI CYNL 031228Z AUTO 26004KT 9SM SCT013 BKN029 OVC036 M09/M10 A2970 RMK AO1 SLP105
SPECI CYNL 031218Z AUTO 26004KT 9SM BKN013 OVC038 M09/M10 A2970 RMK AO1 SLP104
SPECI CYNL 031217Z AUTO 26004KT 9SM SCT013 BKN029 OVC038 M09/M10 A2970 RMK AO1 SLP104
METAR CYNL 031200Z AUTO 24004KT 9SM FEW009 OVC038 M09/M10 A2969 RMK AO1 SLP103
SPECI CYNL 031140Z AUTO 25003KT 9SM SCT010 OVC039 M09/M10 A2970 RMK AO1 SLP103
METAR CYNL 031100Z AUTO 26003KT 9SM OVC010 M09/M10 A2970 RMK AO1 SLP104
SPECI CYNL 031001Z AUTO 25003KT 9SM BKN012 OVC038 M09/M11 A2970 RMK AO1 SLP106
METAR CYNL 031000Z AUTO 25003KT 9SM SCT012 OVC038 M09/M11 A2970 RMK AO1 SLP106
SPECI CYNL 030925Z AUTO 22003KT 9SM FEW008 SCT015 OVC038 M09/M11 A2970 RMK AO1 SLP104
SPECI CYNL 030915Z AUTO 23004KT 9SM FEW008 BKN015 OVC038 M09/M11 A2970 RMK AO1 SLP104
METAR CYNL 030900Z AUTO 24005KT 9SM SCT008 OVC013 M09/M10 A2970 RMK AO1 SLP105
SPECI CYNL 030858Z AUTO 24004KT 9SM SCT008 OVC013 M09/M10 A2970 RMK AO1 SLP105
SPECI CYNL 030857Z AUTO 25004KT 9SM BKN008 OVC013 M09/M10 A2970 RMK AO1 SLP105
SPECI CYNL 030848Z AUTO 24004KT 9SM SCT008 BKN011 OVC013 M09/M11 A2970 RMK AO1 SLP106
SPECI CYNL 030843Z AUTO 24004KT 9SM BKN008 OVC035 M09/M11 A2970 RMK AO1 SLP106
SPECI CYNL 030835Z AUTO 24004KT 9SM SCT009 BKN013 OVC035 M09/M11 A2970 RMK AO1 SLP105
METAR CYNL 030800Z AUTO 24004KT 9SM FEW007 OVC034 M09/M11 A2970 RMK AO1 SLP105
SPECI CYNL 030732Z AUTO 24003KT 8SM SCT003 OVC032 M09/M11 A2969 RMK AO1 SLP104
SPECI CYNL 030715Z AUTO 23003KT 3SM OVC003 M09/M11 A2970 RMK AO1 SLP105
SPECI CYNL 030711Z AUTO 21002KT 2 1/2SM OVC003 M09/M11 A2970 RMK AO1 SLP105
METAR CYNL 030700Z AUTO 26002KT 3SM OVC003 M09/M11 A2969 RMK AO1 SLP104
SPECI CYNL 030649Z AUTO 25003KT 2SM BKN003 OVC005 M09/M11 A2969 RMK AO1 SLP105
SPECI CYNL 030648Z AUTO 25004KT 1 3/4SM BKN003 OVC005 M09/M11 A2969 RMK AO1 SLP105
SPECI CYNL 030642Z AUTO 25004KT 2 1/2SM OVC004 M09/M11 A2969 RMK AO1 SLP105
METAR CYNL 030600Z AUTO 27003KT 9SM BKN007 OVC018 M10/M11 A2970 RMK AO1 SLP107
SPECI CYNL 030553Z AUTO 27004KT 9SM BKN007 OVC019 M10/M11 A2970 RMK AO1 SLP107
SPECI CYNL 030542Z AUTO 25004KT 9SM FEW007 OVC019 M10/M11 A2970 RMK AO1 SLP108
METAR CYNL 030500Z AUTO 25005KT 9SM OVC019 M10/M11 A2970 RMK AO1 SLP106
SPECI CYNL 030423Z AUTO 24003KT 4SM FEW009 SCT012 OVC022 M09/M11 A2969 RMK AO1 SLP106
SPECI CYNL 030422Z AUTO 24003KT 2 1/2SM FEW009 SCT012 OVC022 M09/M11 A2969 RMK AO1 SLP106
SPECI CYNL 030421Z AUTO 24003KT 1 3/4SM FEW009 SCT012 OVC022 M09/M11 A2969 RMK AO1 SLP106
SPECI CYNL 030419Z AUTO 24003KT 1 3/4SM SCT009 BKN013 OVC022 M09/M11 A2969 RMK AO1 SLP106
SPECI CYNL 030412Z AUTO 24002KT 3SM FEW006 SCT008 BKN011 M09/M11 A2969 RMK AO1 SLP105
SPECI CYNL 030411Z AUTO 00000KT 1 1/2SM FEW006 BKN009 BKN017 M09/M11 A2969 RMK AO1 SLP105
SPECI CYNL 030408Z AUTO 24002KT 1 1/4SM VV014 M09/M11 A2969 RMK AO1 SLP106
SPECI CYNL 030407Z AUTO 24002KT 1 3/4SM VV013 M09/M11 A2969 RMK AO1 SLP106
SPECI CYNL 030406Z AUTO 24003KT 3SM VV013 M09/M11 A2969 RMK AO1 SLP106
SPECI CYNL 030404Z AUTO 24003KT 2SM VV012 M09/M11 A2969 RMK AO1 SLP106
SPECI CYNL 030403Z AUTO 24002KT 1 1/2SM VV011 M09/M11 A2969 RMK AO1 SLP106
METAR CYNL 030400Z AUTO 24003KT 1SM VV010 M09/M11 A2969 RMK AO1 SLP106
SPECI CYNL 030359Z AUTO 24003KT 1SM VV010 M09/M11 A2969 RMK AO1 SLP106
SPECI CYNL 030357Z AUTO 24003KT 1SM VV009 M09/M11 A2969 RMK AO1 SLP107
SPECI CYNL 030352Z AUTO 23003KT 5/8SM BKN005 OVC008 M09/M11 A2969 RMK AO1 SLP107
SPECI CYNL 030351Z AUTO 23003KT 3/4SM BKN005 OVC008 M09/M11 A2969 RMK AO1 SLP107
SPECI CYNL 030349Z AUTO 24003KT 1 1/4SM BKN005 OVC007 M09/M11 A2969 RMK AO1 SLP106
SPECI CYNL 030348Z AUTO 24003KT 1 3/4SM OVC005 M09/M11 A2969 RMK AO1 SLP106
SPECI CYNL 030346Z AUTO 25003KT 2 1/2SM OVC005 M09/M11 A2969 RMK AO1 SLP106
SPECI CYNL 030324Z AUTO 24004KT 9SM OVC005 M09/M11 A2969 RMK AO1 SLP106
METAR CYNL 030300Z AUTO 23003KT 9SM BKN004 OVC008 M09/M11 A2969 RMK AO1 SLP105
METAR CYNL 030200Z AUTO 00000KT 9SM OVC003 M09/M11 A2969 RMK AO1 SLP104
METAR CYNL 030100Z AUTO 24003KT 9SM OVC004 M10/M11 A2969 RMK AO1 SLP105
METAR CYNL 030000Z AUTO 00000KT 9SM OVC004 M09/M10 A2968 RMK AO1 SLP101
SPECI CYNL 022342Z AUTO 00000KT 9SM BKN004 OVC006 M09/M11 A2968 RMK AO1 SLP099
METAR CYNL 022300Z AUTO 27003KT 9SM OVC005 M10/M11 A2967 RMK AO1 SLP098
SPECI CYNL 022202Z AUTO 26002KT 9SM OVC005 M09/M11 A2966 RMK AO1 SLP092
METAR CYNL 022200Z AUTO VRB02KT 9SM OVC004 M09/M11 A2966 RMK AO1 SLP091
SPECI CYNL 022159Z AUTO VRB02KT 9SM OVC004 M09/M11 A2966 RMK AO1 SLP089
SPECI CYNL 022156Z AUTO VRB02KT 9SM OVC005 M09/M11 A2966 RMK AO1 SLP089
SPECI CYNL 022124Z AUTO 00000KT 9SM OVC004 M09/M10 A2964 RMK AO1 SLP083
SPECI CYNL 022112Z AUTO 00000KT 9SM OVC005 M09/M11 A2965 RMK AO1 SLP084
METAR CYNL 022100Z AUTO 00000KT 9SM OVC004 M09/M11 A2964 RMK AO1 SLP084
SPECI CYNL 022017Z AUTO 00000KT 3SM OVC003 M10/M11 A2964 RMK AO1 SLP083
SPECI CYNL 022016Z AUTO 00000KT 1 1/2SM OVC003 M10/M11 A2964 RMK AO1 SLP083
SPECI CYNL 022015Z AUTO 00000KT 1SM OVC003 M10/M11 A2964 RMK AO1 SLP083
SPECI CYNL 022014Z AUTO 00000KT 3/4SM OVC003 M10/M11 A2964 RMK AO1 SLP083
SPECI CYNL 022013Z AUTO 00000KT 5/8SM OVC003 M10/M11 A2964 RMK AO1 SLP083
SPECI CYNL 022011Z AUTO 00000KT 1 1/4SM OVC003 M10/M11 A2964 RMK AO1 SLP083
SPECI CYNL 022010Z AUTO 00000KT 2 1/2SM OVC003 M10/M11 A2964 RMK AO1 SLP083
METAR CYNL 022000Z AUTO 00000KT 8SM OVC002 M10/M11 A2964 RMK AO1 SLP083
SPECI CYNL 021953Z AUTO 00000KT 3SM OVC002 M10/M12 A2964 RMK AO1 SLP082
SPECI CYNL 021950Z AUTO 03002KT 2 1/2SM OVC002 M10/M12 A2964 RMK AO1 SLP082
SPECI CYNL 021949Z AUTO 02002KT 3SM OVC002 M10/M12 A2964 RMK AO1 SLP082
SPECI CYNL 021947Z AUTO 02002KT 2 1/2SM OVC002 M10/M12 A2964 RMK AO1 SLP082
SPECI CYNL 021943Z AUTO 00000KT 4SM OVC002 M10/M12 A2964 RMK AO1 SLP082
SPECI CYNL 021942Z AUTO 00000KT 2 1/2SM OVC002 M10/M12 A2964 RMK AO1 SLP083
SPECI CYNL 021940Z AUTO 01002KT 1 1/2SM OVC002 M10/M12 A2964 RMK AO1 SLP083
SPECI CYNL 021937Z AUTO 00000KT 1SM OVC002 M10/M12 A2964 RMK AO1 SLP083
SPECI CYNL 021936Z AUTO 00000KT 3/4SM OVC002 M10/M12 A2964 RMK AO1 SLP083
SPECI CYNL 021927Z AUTO 04002KT 1/4SM VV002 M10/M12 A2964 RMK AO1 SLP083
SPECI CYNL 021920Z AUTO 00000KT 1/8SM VV002 M10/M12 A2964 RMK AO1 SLP083
SPECI CYNL 021913Z AUTO 00000KT 1/4SM VV002 M10/M12 A2964 RMK AO1 SLP082
SPECI CYNL 021910Z AUTO 00000KT 1/8SM VV002 M10/M12 A2964 RMK AO1 SLP083
SPECI CYNL 021905Z AUTO 00000KT 1/4SM VV002 M10/M12 A2964 RMK AO1 SLP083
SPECI CYNL 021902Z AUTO 03002KT 1/8SM VV002 M10/M12 A2964 RMK AO1 SLP083
METAR CYNL 021900Z AUTO 00000KT 1/4SM VV002 M10/M12 A2964 RMK AO1 SLP084
SPECI CYNL 021859Z AUTO 02002KT 1/4SM VV002 M10/M12 A2964 RMK AO1 SLP084
SPECI CYNL 021856Z AUTO 03002KT 1/8SM VV002 M10/M12 A2964 RMK AO1 SLP084
SPECI CYNL 021847Z AUTO 04003KT 5/8SM OVC002 M10/M12 A2964 RMK AO1 SLP083
SPECI CYNL 021843Z AUTO 04003KT 1SM OVC002 M10/M12 A2964 RMK AO1 SLP084
SPECI CYNL 021842Z AUTO 04003KT 3/4SM OVC002 M10/M12 A2964 RMK AO1 SLP084
SPECI CYNL 021836Z AUTO 02003KT 5/8SM VV002 M10/M12 A2964 RMK AO1 SLP084
SPECI CYNL 021835Z AUTO 02003KT 1SM VV002 M10/M12 A2964 RMK AO1 SLP084
SPECI CYNL 021834Z AUTO 03002KT 3/4SM VV002 M10/M12 A2964 RMK AO1 SLP084
SPECI CYNL 021829Z AUTO 04003KT 5/8SM VV002 M10/M12 A2964 RMK AO1 SLP083
SPECI CYNL 021824Z AUTO 02003KT 1SM VV002 M10/M12 A2964 RMK AO1 SLP083
SPECI CYNL 021822Z AUTO 02004KT 3/4SM OVC002 M10/M12 A2964 RMK AO1 SLP083
SPECI CYNL 021821Z AUTO 03003KT 5/8SM OVC002 M10/M12 A2964 RMK AO1 SLP083
SPECI CYNL 021820Z AUTO 02003KT 3/4SM OVC002 M10/M12 A2964 RMK AO1 SLP083
SPECI CYNL 021819Z AUTO 01003KT 1SM OVC002 M11/M12 A2964 RMK AO1 SLP083
SPECI CYNL 021818Z AUTO 01003KT 1 1/2SM OVC002 M11/M12 A2964 RMK AO1 SLP083
SPECI CYNL 021817Z AUTO 01003KT 1 1/4SM OVC002 M11/M12 A2964 RMK AO1 SLP083
SPECI CYNL 021814Z AUTO 02003KT 1 1/2SM OVC002 M11/M12 A2964 RMK AO1 SLP084
SPECI CYNL 021811Z AUTO 01004KT 1 1/4SM OVC003 M11/M12 A2964 RMK AO1 SLP084
SPECI CYNL 021810Z AUTO 01003KT 2SM OVC003 M11/M12 A2964 RMK AO1 SLP084
SPECI CYNL 021808Z AUTO 01002KT 4SM OVC003 M11/M12 A2964 RMK AO1 SLP084
SPECI CYNL 021807Z AUTO 00002KT 2 1/2SM VV002 M11/M12 A2964 RMK AO1 SLP084
SPECI CYNL 021805Z AUTO 01002KT 1 1/2SM VV002 M11/M12 A2964 RMK AO1 SLP084
SPECI CYNL 021803Z AUTO 02003KT 1 1/2SM OVC003 M11/M12 A2964 RMK AO1 SLP084
SPECI CYNL 021801Z AUTO 01003KT 2 1/2SM OVC003 M11/M12 A2964 RMK AO1 SLP084
METAR CYNL 021800Z AUTO 01003KT 3SM OVC003 M11/M12 A2964 RMK AO1 SLP084
SPECI CYNL 021759Z AUTO 01003KT 2 1/2SM OVC003 M11/M12 A2964 RMK AO1 SLP085
METAR CYNL 021700Z AUTO 02003KT 9SM VV003 M11/M13 A2964 RMK AO1 SLP083
SPECI CYNL 021658Z AUTO 02003KT 9SM VV003 M11/M13 A2964 RMK AO1 SLP083
SPECI CYNL 021653Z AUTO 02003KT 9SM BKN002 M11/M13 A2963 RMK AO1 SLP083
SPECI CYNL 021652Z AUTO 02004KT 9SM SCT002 M11/M13 A2963 RMK AO1 SLP083
SPECI CYNL 021638Z AUTO 01003KT 9SM VV002 M12/M13 A2963 RMK AO1 SLP083
SPECI CYNL 021611Z AUTO 02003KT 9SM FEW002 M12/M14 A2963 RMK AO1 SLP083
SPECI CYNL 021601Z AUTO 02003KT 3SM CLR M12/M14 A2964 RMK AO1 SLP084
METAR CYNL 021600Z AUTO 02003KT 1 1/4SM CLR M12/M14 A2964 RMK AO1 SLP084
SPECI CYNL 021559Z AUTO 02003KT 1SM CLR M12/M14 A2964 RMK AO1 SLP083
SPECI CYNL 021558Z AUTO 02003KT 3/4SM CLR M12/M14 A2964 RMK AO1 SLP082
SPECI CYNL 021557Z AUTO ///// 1SM CLR M12/M14 A2964 RMK AO1 SLP082
SPECI CYNL 021539Z AUTO ///// 1/4SM FEW001 M12/M13 A2963 RMK AO1 SLP082
SPECI CYNL 021536Z AUTO ///// 1/8SM FEW001 M12/M13 A2963 RMK AO1 SLP082
SPECI CYNL 021535Z AUTO ///// 1/4SM SCT001 M12/M13 A2963 RMK AO1 SLP082
SPECI CYNL 021527Z AUTO ///// 0SM SCT001 M12/M13 A2963 RMK AO1 SLP082
METAR CYNL 021500Z AUTO ///// 0SM VV001 M12/M13 A2964 RMK AO1 SLP083
SPECI CYNL 021445Z AUTO 00000KT 1/8SM VV001 M12/M13 A2964 RMK AO1 SLP082
SPECI CYNL 021439Z AUTO 00000KT 5/8SM VV001 M12/M13 A2964 RMK AO1 SLP082
SPECI CYNL 021438Z AUTO 00000KT 1SM VV001 M12/M14 A2964 RMK AO1 SLP082
SPECI CYNL 021435Z AUTO 00000KT 2 1/2SM OVC002 M12/M14 A2964 RMK AO1 SLP082